<?xml version="1.0" encoding="UTF-8" standalone="no" ?>
<gpx xmlns="http://www.topografix.com/GPX/1/1" xmlns:xsi="http://www.w3.org/2001/XMLSchema-instance" xsi:schemaLocation="http://www.topografix.com/GPX/1/1 http://www.topografix.com/GPX/1/1/gpx.xsd" version="1.1" creator="VisuGPX - https://www.visugpx.com">
  <metadata>
    <name>ronde des gaulois 47km</name>
    <desc><![CDATA[ronde des gaulois 47km]]></desc>
  </metadata>
  <trk>
    <name><![CDATA[ronde des gaulois 47km]]></name>
    <trkseg>
      <trkpt lat="45.73065" lon="3.10248">
        <ele>469.04406738281</ele>
        <time>2020-12-14T11:03:16.000Z</time>
      </trkpt>
      <trkpt lat="45.73052" lon="3.10233">
        <ele>469.37359619141</ele>
        <time>2020-12-14T11:03:16.003Z</time>
      </trkpt>
      <trkpt lat="45.73062" lon="3.10341">
        <ele>469.51309204102</ele>
        <time>2020-12-14T11:03:16.022Z</time>
      </trkpt>
      <trkpt lat="45.73041" lon="3.1036">
        <ele>470.72821044922</ele>
        <time>2020-12-14T11:03:16.046Z</time>
      </trkpt>
      <trkpt lat="45.73016" lon="3.10392">
        <ele>472.2571105957</ele>
        <time>2020-12-14T11:03:16.076Z</time>
      </trkpt>
      <trkpt lat="45.7297" lon="3.10458">
        <ele>478.80801391602</ele>
        <time>2020-12-14T11:03:16.119Z</time>
      </trkpt>
      <trkpt lat="45.72971" lon="3.10473">
        <ele>479.0544128418</ele>
        <time>2020-12-14T11:03:16.164Z</time>
      </trkpt>
      <trkpt lat="45.72986" lon="3.10533">
        <ele>479.60852050781</ele>
        <time>2020-12-14T11:03:16.218Z</time>
      </trkpt>
      <trkpt lat="45.73001" lon="3.10591">
        <ele>481.80413818359</ele>
        <time>2020-12-14T11:03:16.281Z</time>
      </trkpt>
      <trkpt lat="45.73043" lon="3.10607">
        <ele>478.51013183594</ele>
        <time>2020-12-14T11:03:16.353Z</time>
      </trkpt>
      <trkpt lat="45.73078" lon="3.1064">
        <ele>480.80053710938</ele>
        <time>2020-12-14T11:03:16.433Z</time>
      </trkpt>
      <trkpt lat="45.73127" lon="3.10749">
        <ele>493.14483642578</ele>
        <time>2020-12-14T11:03:16.531Z</time>
      </trkpt>
      <trkpt lat="45.732" lon="3.10799">
        <ele>495.99914550781</ele>
        <time>2020-12-14T11:03:16.645Z</time>
      </trkpt>
      <trkpt lat="45.73259" lon="3.10836">
        <ele>495.53591918945</ele>
        <time>2020-12-14T11:03:16.772Z</time>
      </trkpt>
      <trkpt lat="45.73341" lon="3.10935">
        <ele>496.59762573242</ele>
        <time>2020-12-14T11:03:16.921Z</time>
      </trkpt>
      <trkpt lat="45.73381" lon="3.1115">
        <ele>493.96932983398</ele>
        <time>2020-12-14T11:03:17.101Z</time>
      </trkpt>
      <trkpt lat="45.73391" lon="3.11306">
        <ele>501.53735351562</ele>
        <time>2020-12-14T11:03:17.303Z</time>
      </trkpt>
      <trkpt lat="45.73434" lon="3.11369">
        <ele>495.40350341797</ele>
        <time>2020-12-14T11:03:17.517Z</time>
      </trkpt>
      <trkpt lat="45.73448" lon="3.11792">
        <ele>503.16458129883</ele>
        <time>2020-12-14T11:03:17.791Z</time>
      </trkpt>
      <trkpt lat="45.7343" lon="3.11815">
        <ele>506.93344116211</ele>
        <time>2020-12-14T11:03:18.070Z</time>
      </trkpt>
      <trkpt lat="45.73467" lon="3.11953">
        <ele>504.9645690918</ele>
        <time>2020-12-14T11:03:18.369Z</time>
      </trkpt>
      <trkpt lat="45.73434" lon="3.12128">
        <ele>503.05197143555</ele>
        <time>2020-12-14T11:03:18.694Z</time>
      </trkpt>
      <trkpt lat="45.73383" lon="3.12191">
        <ele>502.31674194336</ele>
        <time>2020-12-14T11:03:19.032Z</time>
      </trkpt>
      <trkpt lat="45.73282" lon="3.12517">
        <ele>492.32522583008</ele>
        <time>2020-12-14T11:03:19.420Z</time>
      </trkpt>
      <trkpt lat="45.73193" lon="3.12559">
        <ele>504.69357299805</ele>
        <time>2020-12-14T11:03:19.827Z</time>
      </trkpt>
      <trkpt lat="45.73117" lon="3.12562">
        <ele>512.27502441406</ele>
        <time>2020-12-14T11:03:20.249Z</time>
      </trkpt>
      <trkpt lat="45.73066" lon="3.12604">
        <ele>513.70690917969</ele>
        <time>2020-12-14T11:03:20.683Z</time>
      </trkpt>
      <trkpt lat="45.73026" lon="3.12579">
        <ele>517.77014160156</ele>
        <time>2020-12-14T11:03:21.126Z</time>
      </trkpt>
      <trkpt lat="45.72958" lon="3.12587">
        <ele>521.02374267578</ele>
        <time>2020-12-14T11:03:21.582Z</time>
      </trkpt>
      <trkpt lat="45.72915" lon="3.12605">
        <ele>525.38629150391</ele>
        <time>2020-12-14T11:03:22.047Z</time>
      </trkpt>
      <trkpt lat="45.72906" lon="3.12648">
        <ele>522.96270751953</ele>
        <time>2020-12-14T11:03:22.519Z</time>
      </trkpt>
      <trkpt lat="45.72875" lon="3.12713">
        <ele>524.73937988281</ele>
        <time>2020-12-14T11:03:23.002Z</time>
      </trkpt>
      <trkpt lat="45.72816" lon="3.12774">
        <ele>541.10980224609</ele>
        <time>2020-12-14T11:03:23.499Z</time>
      </trkpt>
      <trkpt lat="45.72745" lon="3.12858">
        <ele>551.98980712891</ele>
        <time>2020-12-14T11:03:24.015Z</time>
      </trkpt>
      <trkpt lat="45.72701" lon="3.12881">
        <ele>556.88073730469</ele>
        <time>2020-12-14T11:03:24.540Z</time>
      </trkpt>
      <trkpt lat="45.72521" lon="3.1294">
        <ele>577.46087646484</ele>
        <time>2020-12-14T11:03:25.102Z</time>
      </trkpt>
      <trkpt lat="45.724" lon="3.13023">
        <ele>580.80053710938</ele>
        <time>2020-12-14T11:03:25.691Z</time>
      </trkpt>
      <trkpt lat="45.72337" lon="3.13019">
        <ele>593.43908691406</ele>
        <time>2020-12-14T11:03:26.292Z</time>
      </trkpt>
      <trkpt lat="45.72261" lon="3.13084">
        <ele>586.78643798828</ele>
        <time>2020-12-14T11:03:26.911Z</time>
      </trkpt>
      <trkpt lat="45.72185" lon="3.13102">
        <ele>595.00018310547</ele>
        <time>2020-12-14T11:03:27.546Z</time>
      </trkpt>
      <trkpt lat="45.72132" lon="3.13082">
        <ele>606.95965576172</ele>
        <time>2020-12-14T11:03:28.192Z</time>
      </trkpt>
      <trkpt lat="45.72128" lon="3.13074">
        <ele>609.69519042969</ele>
        <time>2020-12-14T11:03:28.839Z</time>
      </trkpt>
      <trkpt lat="45.72132" lon="3.1307">
        <ele>610.41510009766</ele>
        <time>2020-12-14T11:03:29.487Z</time>
      </trkpt>
      <trkpt lat="45.72136" lon="3.13069">
        <ele>610.27111816406</ele>
        <time>2020-12-14T11:03:30.136Z</time>
      </trkpt>
      <trkpt lat="45.72166" lon="3.13075">
        <ele>604.95678710938</ele>
        <time>2020-12-14T11:03:30.791Z</time>
      </trkpt>
      <trkpt lat="45.7217" lon="3.1307">
        <ele>605.91662597656</ele>
        <time>2020-12-14T11:03:31.447Z</time>
      </trkpt>
      <trkpt lat="45.72181" lon="3.13069">
        <ele>604.884765625</ele>
        <time>2020-12-14T11:03:32.105Z</time>
      </trkpt>
      <trkpt lat="45.72228" lon="3.13042">
        <ele>606.82312011719</ele>
        <time>2020-12-14T11:03:32.773Z</time>
      </trkpt>
      <trkpt lat="45.72287" lon="3.12979">
        <ele>613.83856201172</ele>
        <time>2020-12-14T11:03:33.456Z</time>
      </trkpt>
      <trkpt lat="45.72425" lon="3.12885">
        <ele>613.50793457031</ele>
        <time>2020-12-14T11:03:34.169Z</time>
      </trkpt>
      <trkpt lat="45.72454" lon="3.12816">
        <ele>622.64739990234</ele>
        <time>2020-12-14T11:03:34.894Z</time>
      </trkpt>
      <trkpt lat="45.72512" lon="3.12753">
        <ele>629.14349365234</ele>
        <time>2020-12-14T11:03:35.633Z</time>
      </trkpt>
      <trkpt lat="45.72558" lon="3.12681">
        <ele>630.9873046875</ele>
        <time>2020-12-14T11:03:36.386Z</time>
      </trkpt>
      <trkpt lat="45.72578" lon="3.12636">
        <ele>629.88018798828</ele>
        <time>2020-12-14T11:03:37.146Z</time>
      </trkpt>
      <trkpt lat="45.72574" lon="3.12631">
        <ele>630.3720703125</ele>
        <time>2020-12-14T11:03:37.907Z</time>
      </trkpt>
      <trkpt lat="45.72564" lon="3.12629">
        <ele>631.47589111328</ele>
        <time>2020-12-14T11:03:38.670Z</time>
      </trkpt>
      <trkpt lat="45.7254" lon="3.12637">
        <ele>634.79937744141</ele>
        <time>2020-12-14T11:03:39.438Z</time>
      </trkpt>
      <trkpt lat="45.72496" lon="3.12625">
        <ele>641.99310302734</ele>
        <time>2020-12-14T11:03:40.215Z</time>
      </trkpt>
      <trkpt lat="45.72457" lon="3.12657">
        <ele>645.03063964844</ele>
        <time>2020-12-14T11:03:41.001Z</time>
      </trkpt>
      <trkpt lat="45.72397" lon="3.12739">
        <ele>645.13293457031</ele>
        <time>2020-12-14T11:03:41.804Z</time>
      </trkpt>
      <trkpt lat="45.72295" lon="3.12786">
        <ele>651.99505615234</ele>
        <time>2020-12-14T11:03:42.628Z</time>
      </trkpt>
      <trkpt lat="45.72239" lon="3.12848">
        <ele>649.84295654297</ele>
        <time>2020-12-14T11:03:43.467Z</time>
      </trkpt>
      <trkpt lat="45.72219" lon="3.12879">
        <ele>646.91583251953</ele>
        <time>2020-12-14T11:03:44.312Z</time>
      </trkpt>
      <trkpt lat="45.72164" lon="3.12914">
        <ele>648.07598876953</ele>
        <time>2020-12-14T11:03:45.168Z</time>
      </trkpt>
      <trkpt lat="45.72118" lon="3.12915">
        <ele>652.9697265625</ele>
        <time>2020-12-14T11:03:46.034Z</time>
      </trkpt>
      <trkpt lat="45.72062" lon="3.12914">
        <ele>657.08264160156</ele>
        <time>2020-12-14T11:03:46.911Z</time>
      </trkpt>
      <trkpt lat="45.71983" lon="3.12946">
        <ele>658.63891601562</ele>
        <time>2020-12-14T11:03:47.804Z</time>
      </trkpt>
      <trkpt lat="45.71918" lon="3.12962">
        <ele>660.63922119141</ele>
        <time>2020-12-14T11:03:48.711Z</time>
      </trkpt>
      <trkpt lat="45.71897" lon="3.1296">
        <ele>661.119140625</ele>
        <time>2020-12-14T11:03:49.622Z</time>
      </trkpt>
      <trkpt lat="45.71889" lon="3.12959">
        <ele>661.35913085938</ele>
        <time>2020-12-14T11:03:50.534Z</time>
      </trkpt>
      <trkpt lat="45.71882" lon="3.12957">
        <ele>661.23645019531</ele>
        <time>2020-12-14T11:03:51.448Z</time>
      </trkpt>
      <trkpt lat="45.71858" lon="3.12946">
        <ele>660.99645996094</ele>
        <time>2020-12-14T11:03:52.367Z</time>
      </trkpt>
      <trkpt lat="45.71737" lon="3.12867">
        <ele>662.47045898438</ele>
        <time>2020-12-14T11:03:53.312Z</time>
      </trkpt>
      <trkpt lat="45.71698" lon="3.12853">
        <ele>661.25036621094</ele>
        <time>2020-12-14T11:03:54.266Z</time>
      </trkpt>
      <trkpt lat="45.71702" lon="3.12844">
        <ele>663.42205810547</ele>
        <time>2020-12-14T11:03:55.221Z</time>
      </trkpt>
      <trkpt lat="45.71741" lon="3.12797">
        <ele>671.97326660156</ele>
        <time>2020-12-14T11:03:56.186Z</time>
      </trkpt>
      <trkpt lat="45.71771" lon="3.12758">
        <ele>685.27746582031</ele>
        <time>2020-12-14T11:03:57.159Z</time>
      </trkpt>
      <trkpt lat="45.71776" lon="3.12761">
        <ele>686.24310302734</ele>
        <time>2020-12-14T11:03:58.133Z</time>
      </trkpt>
      <trkpt lat="45.71819" lon="3.12788">
        <ele>689.07556152344</ele>
        <time>2020-12-14T11:03:59.117Z</time>
      </trkpt>
      <trkpt lat="45.71822" lon="3.12796">
        <ele>687.74377441406</ele>
        <time>2020-12-14T11:04:00.102Z</time>
      </trkpt>
      <trkpt lat="45.71826" lon="3.1281">
        <ele>685.24822998047</ele>
        <time>2020-12-14T11:04:01.089Z</time>
      </trkpt>
      <trkpt lat="45.7183" lon="3.12816">
        <ele>684.48034667969</ele>
        <time>2020-12-14T11:04:02.077Z</time>
      </trkpt>
      <trkpt lat="45.71835" lon="3.12818">
        <ele>684.70831298828</ele>
        <time>2020-12-14T11:04:03.066Z</time>
      </trkpt>
      <trkpt lat="45.71886" lon="3.12824">
        <ele>690.59423828125</ele>
        <time>2020-12-14T11:04:04.066Z</time>
      </trkpt>
      <trkpt lat="45.71891" lon="3.12825">
        <ele>690.22741699219</ele>
        <time>2020-12-14T11:04:05.067Z</time>
      </trkpt>
      <trkpt lat="45.71904" lon="3.12836">
        <ele>686.65197753906</ele>
        <time>2020-12-14T11:04:06.071Z</time>
      </trkpt>
      <trkpt lat="45.71947" lon="3.12829">
        <ele>685.23626708984</ele>
        <time>2020-12-14T11:04:07.083Z</time>
      </trkpt>
      <trkpt lat="45.71975" lon="3.12789">
        <ele>692.05023193359</ele>
        <time>2020-12-14T11:04:08.103Z</time>
      </trkpt>
      <trkpt lat="45.71986" lon="3.12779">
        <ele>693.27404785156</ele>
        <time>2020-12-14T11:04:09.126Z</time>
      </trkpt>
      <trkpt lat="45.71993" lon="3.12754">
        <ele>698.92199707031</ele>
        <time>2020-12-14T11:04:10.153Z</time>
      </trkpt>
      <trkpt lat="45.71996" lon="3.12747">
        <ele>699.86987304688</ele>
        <time>2020-12-14T11:04:11.181Z</time>
      </trkpt>
      <trkpt lat="45.72006" lon="3.12717">
        <ele>704.06915283203</ele>
        <time>2020-12-14T11:04:12.213Z</time>
      </trkpt>
      <trkpt lat="45.72008" lon="3.12712">
        <ele>704.78601074219</ele>
        <time>2020-12-14T11:04:13.246Z</time>
      </trkpt>
      <trkpt lat="45.7204" lon="3.12711">
        <ele>703.86212158203</ele>
        <time>2020-12-14T11:04:14.286Z</time>
      </trkpt>
      <trkpt lat="45.7207" lon="3.12693">
        <ele>704.62640380859</ele>
        <time>2020-12-14T11:04:15.332Z</time>
      </trkpt>
      <trkpt lat="45.72064" lon="3.12643">
        <ele>709.22937011719</ele>
        <time>2020-12-14T11:04:16.385Z</time>
      </trkpt>
      <trkpt lat="45.72093" lon="3.12629">
        <ele>707.89520263672</ele>
        <time>2020-12-14T11:04:17.444Z</time>
      </trkpt>
      <trkpt lat="45.7213" lon="3.12618">
        <ele>707.09136962891</ele>
        <time>2020-12-14T11:04:18.511Z</time>
      </trkpt>
      <trkpt lat="45.72178" lon="3.12604">
        <ele>703.580078125</ele>
        <time>2020-12-14T11:04:19.588Z</time>
      </trkpt>
      <trkpt lat="45.72197" lon="3.12611">
        <ele>701.20446777344</ele>
        <time>2020-12-14T11:04:20.669Z</time>
      </trkpt>
      <trkpt lat="45.7232" lon="3.1256">
        <ele>686.77996826172</ele>
        <time>2020-12-14T11:04:21.775Z</time>
      </trkpt>
      <trkpt lat="45.72347" lon="3.12481">
        <ele>686.08874511719</ele>
        <time>2020-12-14T11:04:22.894Z</time>
      </trkpt>
      <trkpt lat="45.72342" lon="3.12341">
        <ele>684.59600830078</ele>
        <time>2020-12-14T11:04:24.032Z</time>
      </trkpt>
      <trkpt lat="45.72317" lon="3.12224">
        <ele>689.79736328125</ele>
        <time>2020-12-14T11:04:25.187Z</time>
      </trkpt>
      <trkpt lat="45.72305" lon="3.12052">
        <ele>691.56805419922</ele>
        <time>2020-12-14T11:04:26.367Z</time>
      </trkpt>
      <trkpt lat="45.72294" lon="3.11898">
        <ele>688.30499267578</ele>
        <time>2020-12-14T11:04:27.568Z</time>
      </trkpt>
      <trkpt lat="45.72264" lon="3.11706">
        <ele>685.60870361328</ele>
        <time>2020-12-14T11:04:28.797Z</time>
      </trkpt>
      <trkpt lat="45.72191" lon="3.1141">
        <ele>695.87475585938</ele>
        <time>2020-12-14T11:04:30.070Z</time>
      </trkpt>
      <trkpt lat="45.72183" lon="3.11309">
        <ele>697.15344238281</ele>
        <time>2020-12-14T11:04:31.357Z</time>
      </trkpt>
      <trkpt lat="45.72153" lon="3.11216">
        <ele>705.39428710938</ele>
        <time>2020-12-14T11:04:32.659Z</time>
      </trkpt>
      <trkpt lat="45.72143" lon="3.11177">
        <ele>708.35552978516</ele>
        <time>2020-12-14T11:04:33.966Z</time>
      </trkpt>
      <trkpt lat="45.72144" lon="3.1117">
        <ele>707.92126464844</ele>
        <time>2020-12-14T11:04:35.274Z</time>
      </trkpt>
      <trkpt lat="45.72153" lon="3.1115">
        <ele>704.95776367188</ele>
        <time>2020-12-14T11:04:36.586Z</time>
      </trkpt>
      <trkpt lat="45.72159" lon="3.1107">
        <ele>701.32318115234</ele>
        <time>2020-12-14T11:04:37.909Z</time>
      </trkpt>
      <trkpt lat="45.72148" lon="3.11035">
        <ele>701.43713378906</ele>
        <time>2020-12-14T11:04:39.237Z</time>
      </trkpt>
      <trkpt lat="45.72105" lon="3.10961">
        <ele>703.28198242188</ele>
        <time>2020-12-14T11:04:40.579Z</time>
      </trkpt>
      <trkpt lat="45.71972" lon="3.10833">
        <ele>703.66741943359</ele>
        <time>2020-12-14T11:04:41.953Z</time>
      </trkpt>
      <trkpt lat="45.71792" lon="3.10744">
        <ele>701.46472167969</ele>
        <time>2020-12-14T11:04:43.365Z</time>
      </trkpt>
      <trkpt lat="45.71723" lon="3.10691">
        <ele>699.37268066406</ele>
        <time>2020-12-14T11:04:44.793Z</time>
      </trkpt>
      <trkpt lat="45.71699" lon="3.10581">
        <ele>690.27777099609</ele>
        <time>2020-12-14T11:04:46.237Z</time>
      </trkpt>
      <trkpt lat="45.71626" lon="3.1047">
        <ele>699.00250244141</ele>
        <time>2020-12-14T11:04:47.702Z</time>
      </trkpt>
      <trkpt lat="45.71599" lon="3.10403">
        <ele>698.90515136719</ele>
        <time>2020-12-14T11:04:49.178Z</time>
      </trkpt>
      <trkpt lat="45.71585" lon="3.10404">
        <ele>697.77014160156</ele>
        <time>2020-12-14T11:04:50.657Z</time>
      </trkpt>
      <trkpt lat="45.71521" lon="3.1043">
        <ele>693.45202636719</ele>
        <time>2020-12-14T11:04:52.149Z</time>
      </trkpt>
      <trkpt lat="45.7147" lon="3.10463">
        <ele>691.25299072266</ele>
        <time>2020-12-14T11:04:53.652Z</time>
      </trkpt>
      <trkpt lat="45.71338" lon="3.10101">
        <ele>699.09173583984</ele>
        <time>2020-12-14T11:04:55.212Z</time>
      </trkpt>
      <trkpt lat="45.7132" lon="3.1009">
        <ele>699.56304931641</ele>
        <time>2020-12-14T11:04:56.776Z</time>
      </trkpt>
      <trkpt lat="45.7127" lon="3.10104">
        <ele>699.59008789062</ele>
        <time>2020-12-14T11:04:58.351Z</time>
      </trkpt>
      <trkpt lat="45.71225" lon="3.10153">
        <ele>697.04650878906</ele>
        <time>2020-12-14T11:04:59.937Z</time>
      </trkpt>
      <trkpt lat="45.712" lon="3.10186">
        <ele>696.51654052734</ele>
        <time>2020-12-14T11:05:01.530Z</time>
      </trkpt>
      <trkpt lat="45.71176" lon="3.10248">
        <ele>691.94061279297</ele>
        <time>2020-12-14T11:05:03.133Z</time>
      </trkpt>
      <trkpt lat="45.71145" lon="3.10289">
        <ele>688.81848144531</ele>
        <time>2020-12-14T11:05:04.744Z</time>
      </trkpt>
      <trkpt lat="45.7107" lon="3.10344">
        <ele>691.37744140625</ele>
        <time>2020-12-14T11:05:06.372Z</time>
      </trkpt>
      <trkpt lat="45.71008" lon="3.10419">
        <ele>686.57965087891</ele>
        <time>2020-12-14T11:05:08.016Z</time>
      </trkpt>
      <trkpt lat="45.70909" lon="3.10522">
        <ele>686.61157226562</ele>
        <time>2020-12-14T11:05:09.685Z</time>
      </trkpt>
      <trkpt lat="45.7086" lon="3.10573">
        <ele>681.82531738281</ele>
        <time>2020-12-14T11:05:11.366Z</time>
      </trkpt>
      <trkpt lat="45.70834" lon="3.10607">
        <ele>674.55139160156</ele>
        <time>2020-12-14T11:05:13.054Z</time>
      </trkpt>
      <trkpt lat="45.70798" lon="3.10622">
        <ele>667.98046875</ele>
        <time>2020-12-14T11:05:14.749Z</time>
      </trkpt>
      <trkpt lat="45.7078" lon="3.10659">
        <ele>663.61535644531</ele>
        <time>2020-12-14T11:05:16.451Z</time>
      </trkpt>
      <trkpt lat="45.70734" lon="3.10693">
        <ele>655.24645996094</ele>
        <time>2020-12-14T11:05:18.163Z</time>
      </trkpt>
      <trkpt lat="45.70694" lon="3.1069">
        <ele>648.24658203125</ele>
        <time>2020-12-14T11:05:19.883Z</time>
      </trkpt>
      <trkpt lat="45.70661" lon="3.10757">
        <ele>640.54534912109</ele>
        <time>2020-12-14T11:05:21.615Z</time>
      </trkpt>
      <trkpt lat="45.70626" lon="3.10794">
        <ele>633.40502929688</ele>
        <time>2020-12-14T11:05:23.355Z</time>
      </trkpt>
      <trkpt lat="45.70628" lon="3.10749">
        <ele>633.13391113281</ele>
        <time>2020-12-14T11:05:25.101Z</time>
      </trkpt>
      <trkpt lat="45.70644" lon="3.10688">
        <ele>636.58605957031</ele>
        <time>2020-12-14T11:05:26.857Z</time>
      </trkpt>
      <trkpt lat="45.70638" lon="3.10665">
        <ele>635.38397216797</ele>
        <time>2020-12-14T11:05:28.616Z</time>
      </trkpt>
      <trkpt lat="45.70582" lon="3.10683">
        <ele>618.57073974609</ele>
        <time>2020-12-14T11:05:30.387Z</time>
      </trkpt>
      <trkpt lat="45.7055" lon="3.10727">
        <ele>612.97509765625</ele>
        <time>2020-12-14T11:05:32.166Z</time>
      </trkpt>
      <trkpt lat="45.70434" lon="3.1081">
        <ele>586.23956298828</ele>
        <time>2020-12-14T11:05:33.972Z</time>
      </trkpt>
      <trkpt lat="45.70353" lon="3.10833">
        <ele>570.12329101562</ele>
        <time>2020-12-14T11:05:35.794Z</time>
      </trkpt>
      <trkpt lat="45.70308" lon="3.10835">
        <ele>564.14593505859</ele>
        <time>2020-12-14T11:05:37.625Z</time>
      </trkpt>
      <trkpt lat="45.70281" lon="3.10816">
        <ele>561.95776367188</ele>
        <time>2020-12-14T11:05:39.462Z</time>
      </trkpt>
      <trkpt lat="45.70267" lon="3.10827">
        <ele>560.32659912109</ele>
        <time>2020-12-14T11:05:41.302Z</time>
      </trkpt>
      <trkpt lat="45.70259" lon="3.10853">
        <ele>559.15106201172</ele>
        <time>2020-12-14T11:05:43.146Z</time>
      </trkpt>
      <trkpt lat="45.70208" lon="3.10852">
        <ele>554.61700439453</ele>
        <time>2020-12-14T11:05:45.000Z</time>
      </trkpt>
      <trkpt lat="45.70211" lon="3.10899">
        <ele>553.78912353516</ele>
        <time>2020-12-14T11:05:46.861Z</time>
      </trkpt>
      <trkpt lat="45.70174" lon="3.10927">
        <ele>549.55029296875</ele>
        <time>2020-12-14T11:05:48.730Z</time>
      </trkpt>
      <trkpt lat="45.70174" lon="3.1094">
        <ele>549.93182373047</ele>
        <time>2020-12-14T11:05:50.601Z</time>
      </trkpt>
      <trkpt lat="45.70178" lon="3.10952">
        <ele>550.53887939453</ele>
        <time>2020-12-14T11:05:52.474Z</time>
      </trkpt>
      <trkpt lat="45.70183" lon="3.10981">
        <ele>550.9150390625</ele>
        <time>2020-12-14T11:05:54.351Z</time>
      </trkpt>
      <trkpt lat="45.7009" lon="3.11014">
        <ele>533.62005615234</ele>
        <time>2020-12-14T11:05:56.247Z</time>
      </trkpt>
      <trkpt lat="45.70047" lon="3.11055">
        <ele>524.16979980469</ele>
        <time>2020-12-14T11:05:58.154Z</time>
      </trkpt>
      <trkpt lat="45.69936" lon="3.11073">
        <ele>505.17520141602</ele>
        <time>2020-12-14T11:06:00.083Z</time>
      </trkpt>
      <trkpt lat="45.69839" lon="3.11147">
        <ele>490.79174804688</ele>
        <time>2020-12-14T11:06:02.034Z</time>
      </trkpt>
      <trkpt lat="45.69853" lon="3.11209">
        <ele>489.46032714844</ele>
        <time>2020-12-14T11:06:03.994Z</time>
      </trkpt>
      <trkpt lat="45.6993" lon="3.11318">
        <ele>490.07489013672</ele>
        <time>2020-12-14T11:06:05.976Z</time>
      </trkpt>
      <trkpt lat="45.69947" lon="3.11416">
        <ele>486.21627807617</ele>
        <time>2020-12-14T11:06:07.972Z</time>
      </trkpt>
      <trkpt lat="45.69887" lon="3.11476">
        <ele>477.64370727539</ele>
        <time>2020-12-14T11:06:09.983Z</time>
      </trkpt>
      <trkpt lat="45.69796" lon="3.11531">
        <ele>465.22793579102</ele>
        <time>2020-12-14T11:06:12.014Z</time>
      </trkpt>
      <trkpt lat="45.69816" lon="3.11621">
        <ele>458.48852539062</ele>
        <time>2020-12-14T11:06:14.058Z</time>
      </trkpt>
      <trkpt lat="45.69829" lon="3.11672">
        <ele>453.78649902344</ele>
        <time>2020-12-14T11:06:16.109Z</time>
      </trkpt>
      <trkpt lat="45.69844" lon="3.11789">
        <ele>448.31762695312</ele>
        <time>2020-12-14T11:06:18.177Z</time>
      </trkpt>
      <trkpt lat="45.69832" lon="3.11855">
        <ele>446.17770385742</ele>
        <time>2020-12-14T11:06:20.255Z</time>
      </trkpt>
      <trkpt lat="45.69807" lon="3.11904">
        <ele>444.28204345703</ele>
        <time>2020-12-14T11:06:22.341Z</time>
      </trkpt>
      <trkpt lat="45.69769" lon="3.11901">
        <ele>442.15148925781</ele>
        <time>2020-12-14T11:06:24.435Z</time>
      </trkpt>
      <trkpt lat="45.69669" lon="3.11909">
        <ele>439.22845458984</ele>
        <time>2020-12-14T11:06:26.549Z</time>
      </trkpt>
      <trkpt lat="45.69629" lon="3.11934">
        <ele>440.27978515625</ele>
        <time>2020-12-14T11:06:28.671Z</time>
      </trkpt>
      <trkpt lat="45.69579" lon="3.11951">
        <ele>442.88214111328</ele>
        <time>2020-12-14T11:06:30.804Z</time>
      </trkpt>
      <trkpt lat="45.69531" lon="3.11953">
        <ele>449.05786132812</ele>
        <time>2020-12-14T11:06:32.946Z</time>
      </trkpt>
      <trkpt lat="45.69487" lon="3.1196">
        <ele>455.95806884766</ele>
        <time>2020-12-14T11:06:35.097Z</time>
      </trkpt>
      <trkpt lat="45.69446" lon="3.11973">
        <ele>461.05722045898</ele>
        <time>2020-12-14T11:06:37.257Z</time>
      </trkpt>
      <trkpt lat="45.6937" lon="3.11994">
        <ele>474.18197631836</ele>
        <time>2020-12-14T11:06:39.432Z</time>
      </trkpt>
      <trkpt lat="45.69332" lon="3.12003">
        <ele>477.50540161133</ele>
        <time>2020-12-14T11:06:41.615Z</time>
      </trkpt>
      <trkpt lat="45.69293" lon="3.12007">
        <ele>481.84329223633</ele>
        <time>2020-12-14T11:06:43.806Z</time>
      </trkpt>
      <trkpt lat="45.69283" lon="3.12009">
        <ele>483.45101928711</ele>
        <time>2020-12-14T11:06:45.999Z</time>
      </trkpt>
      <trkpt lat="45.69259" lon="3.12002">
        <ele>487.73431396484</ele>
        <time>2020-12-14T11:06:48.197Z</time>
      </trkpt>
      <trkpt lat="45.69248" lon="3.12015">
        <ele>489.33782958984</ele>
        <time>2020-12-14T11:06:50.397Z</time>
      </trkpt>
      <trkpt lat="45.69238" lon="3.12031">
        <ele>491.14776611328</ele>
        <time>2020-12-14T11:06:52.600Z</time>
      </trkpt>
      <trkpt lat="45.6921" lon="3.12047">
        <ele>495.46279907227</ele>
        <time>2020-12-14T11:06:54.809Z</time>
      </trkpt>
      <trkpt lat="45.69164" lon="3.12058">
        <ele>503.67599487305</ele>
        <time>2020-12-14T11:06:57.028Z</time>
      </trkpt>
      <trkpt lat="45.69136" lon="3.12074">
        <ele>507.7626953125</ele>
        <time>2020-12-14T11:06:59.253Z</time>
      </trkpt>
      <trkpt lat="45.69132" lon="3.1208">
        <ele>507.9306640625</ele>
        <time>2020-12-14T11:07:01.479Z</time>
      </trkpt>
      <trkpt lat="45.69089" lon="3.12106">
        <ele>513.12963867188</ele>
        <time>2020-12-14T11:07:03.714Z</time>
      </trkpt>
      <trkpt lat="45.6901" lon="3.1216">
        <ele>522.46228027344</ele>
        <time>2020-12-14T11:07:05.967Z</time>
      </trkpt>
      <trkpt lat="45.68968" lon="3.12197">
        <ele>528.01031494141</ele>
        <time>2020-12-14T11:07:08.230Z</time>
      </trkpt>
      <trkpt lat="45.68933" lon="3.12231">
        <ele>534.42364501953</ele>
        <time>2020-12-14T11:07:10.501Z</time>
      </trkpt>
      <trkpt lat="45.68906" lon="3.12274">
        <ele>538.31671142578</ele>
        <time>2020-12-14T11:07:12.780Z</time>
      </trkpt>
      <trkpt lat="45.68866" lon="3.12286">
        <ele>542.21606445312</ele>
        <time>2020-12-14T11:07:15.067Z</time>
      </trkpt>
      <trkpt lat="45.68828" lon="3.12283">
        <ele>546.31939697266</ele>
        <time>2020-12-14T11:07:17.362Z</time>
      </trkpt>
      <trkpt lat="45.68791" lon="3.12307">
        <ele>552.01770019531</ele>
        <time>2020-12-14T11:07:19.665Z</time>
      </trkpt>
      <trkpt lat="45.68759" lon="3.12372">
        <ele>556.49096679688</ele>
        <time>2020-12-14T11:07:21.979Z</time>
      </trkpt>
      <trkpt lat="45.68732" lon="3.12452">
        <ele>561.26147460938</ele>
        <time>2020-12-14T11:07:24.306Z</time>
      </trkpt>
      <trkpt lat="45.68714" lon="3.12517">
        <ele>565.83911132812</ele>
        <time>2020-12-14T11:07:26.643Z</time>
      </trkpt>
      <trkpt lat="45.68655" lon="3.12512">
        <ele>574.36248779297</ele>
        <time>2020-12-14T11:07:28.991Z</time>
      </trkpt>
      <trkpt lat="45.68646" lon="3.12468">
        <ele>574.68347167969</ele>
        <time>2020-12-14T11:07:31.346Z</time>
      </trkpt>
      <trkpt lat="45.6855" lon="3.12424">
        <ele>582.88531494141</ele>
        <time>2020-12-14T11:07:33.721Z</time>
      </trkpt>
      <trkpt lat="45.68539" lon="3.12339">
        <ele>589.67620849609</ele>
        <time>2020-12-14T11:07:36.108Z</time>
      </trkpt>
      <trkpt lat="45.68536" lon="3.12297">
        <ele>594.44689941406</ele>
        <time>2020-12-14T11:07:38.501Z</time>
      </trkpt>
      <trkpt lat="45.68534" lon="3.12282">
        <ele>596.32220458984</ele>
        <time>2020-12-14T11:07:40.896Z</time>
      </trkpt>
      <trkpt lat="45.68548" lon="3.12159">
        <ele>603.31402587891</ele>
        <time>2020-12-14T11:07:43.309Z</time>
      </trkpt>
      <trkpt lat="45.68542" lon="3.12108">
        <ele>607.17260742188</ele>
        <time>2020-12-14T11:07:45.729Z</time>
      </trkpt>
      <trkpt lat="45.68529" lon="3.12053">
        <ele>613.01196289062</ele>
        <time>2020-12-14T11:07:48.157Z</time>
      </trkpt>
      <trkpt lat="45.68528" lon="3.12002">
        <ele>614.63739013672</ele>
        <time>2020-12-14T11:07:50.592Z</time>
      </trkpt>
      <trkpt lat="45.68513" lon="3.11948">
        <ele>621.01544189453</ele>
        <time>2020-12-14T11:07:53.035Z</time>
      </trkpt>
      <trkpt lat="45.68506" lon="3.11885">
        <ele>623.70318603516</ele>
        <time>2020-12-14T11:07:55.487Z</time>
      </trkpt>
      <trkpt lat="45.68494" lon="3.11815">
        <ele>625.54406738281</ele>
        <time>2020-12-14T11:07:57.949Z</time>
      </trkpt>
      <trkpt lat="45.68467" lon="3.11735">
        <ele>630.74725341797</ele>
        <time>2020-12-14T11:08:00.424Z</time>
      </trkpt>
      <trkpt lat="45.68437" lon="3.11634">
        <ele>631.98327636719</ele>
        <time>2020-12-14T11:08:02.914Z</time>
      </trkpt>
      <trkpt lat="45.68397" lon="3.11512">
        <ele>635.04888916016</ele>
        <time>2020-12-14T11:08:05.423Z</time>
      </trkpt>
      <trkpt lat="45.68361" lon="3.11336">
        <ele>633.87475585938</ele>
        <time>2020-12-14T11:08:07.958Z</time>
      </trkpt>
      <trkpt lat="45.68332" lon="3.11343">
        <ele>642.39093017578</ele>
        <time>2020-12-14T11:08:10.499Z</time>
      </trkpt>
      <trkpt lat="45.68303" lon="3.11289">
        <ele>651.65344238281</ele>
        <time>2020-12-14T11:08:13.049Z</time>
      </trkpt>
      <trkpt lat="45.68179" lon="3.1088">
        <ele>647.76129150391</ele>
        <time>2020-12-14T11:08:15.662Z</time>
      </trkpt>
      <trkpt lat="45.68132" lon="3.10892">
        <ele>657.37115478516</ele>
        <time>2020-12-14T11:08:18.285Z</time>
      </trkpt>
      <trkpt lat="45.68093" lon="3.10922">
        <ele>653.53820800781</ele>
        <time>2020-12-14T11:08:20.916Z</time>
      </trkpt>
      <trkpt lat="45.68068" lon="3.1089">
        <ele>652.38159179688</ele>
        <time>2020-12-14T11:08:23.554Z</time>
      </trkpt>
      <trkpt lat="45.68041" lon="3.10823">
        <ele>650.927734375</ele>
        <time>2020-12-14T11:08:26.203Z</time>
      </trkpt>
      <trkpt lat="45.68037" lon="3.10845">
        <ele>647.14978027344</ele>
        <time>2020-12-14T11:08:28.855Z</time>
      </trkpt>
      <trkpt lat="45.68029" lon="3.10912">
        <ele>641.05480957031</ele>
        <time>2020-12-14T11:08:31.517Z</time>
      </trkpt>
      <trkpt lat="45.68002" lon="3.10918">
        <ele>630.86370849609</ele>
        <time>2020-12-14T11:08:34.184Z</time>
      </trkpt>
      <trkpt lat="45.67977" lon="3.10907">
        <ele>622.57788085938</ele>
        <time>2020-12-14T11:08:36.856Z</time>
      </trkpt>
      <trkpt lat="45.67951" lon="3.10918">
        <ele>614.03790283203</ele>
        <time>2020-12-14T11:08:39.534Z</time>
      </trkpt>
      <trkpt lat="45.67923" lon="3.10915">
        <ele>606.11926269531</ele>
        <time>2020-12-14T11:08:42.217Z</time>
      </trkpt>
      <trkpt lat="45.67915" lon="3.10935">
        <ele>602.40582275391</ele>
        <time>2020-12-14T11:08:44.904Z</time>
      </trkpt>
      <trkpt lat="45.6792" lon="3.1097">
        <ele>600.7724609375</ele>
        <time>2020-12-14T11:08:47.596Z</time>
      </trkpt>
      <trkpt lat="45.67918" lon="3.11013">
        <ele>596.99157714844</ele>
        <time>2020-12-14T11:08:50.294Z</time>
      </trkpt>
      <trkpt lat="45.67876" lon="3.11057">
        <ele>580.69604492188</ele>
        <time>2020-12-14T11:08:53.002Z</time>
      </trkpt>
      <trkpt lat="45.6786" lon="3.11009">
        <ele>582.2021484375</ele>
        <time>2020-12-14T11:08:55.718Z</time>
      </trkpt>
      <trkpt lat="45.6785" lon="3.10954">
        <ele>584.75592041016</ele>
        <time>2020-12-14T11:08:58.441Z</time>
      </trkpt>
      <trkpt lat="45.67826" lon="3.10917">
        <ele>581.94842529297</ele>
        <time>2020-12-14T11:09:01.171Z</time>
      </trkpt>
      <trkpt lat="45.67815" lon="3.10851">
        <ele>584.08483886719</ele>
        <time>2020-12-14T11:09:03.911Z</time>
      </trkpt>
      <trkpt lat="45.67776" lon="3.10806">
        <ele>581.43731689453</ele>
        <time>2020-12-14T11:09:06.661Z</time>
      </trkpt>
      <trkpt lat="45.67759" lon="3.10741">
        <ele>586.77801513672</ele>
        <time>2020-12-14T11:09:09.421Z</time>
      </trkpt>
      <trkpt lat="45.67761" lon="3.10683">
        <ele>595.11517333984</ele>
        <time>2020-12-14T11:09:12.189Z</time>
      </trkpt>
      <trkpt lat="45.67744" lon="3.10566">
        <ele>600.99719238281</ele>
        <time>2020-12-14T11:09:14.974Z</time>
      </trkpt>
      <trkpt lat="45.67715" lon="3.10541">
        <ele>598.55651855469</ele>
        <time>2020-12-14T11:09:17.765Z</time>
      </trkpt>
      <trkpt lat="45.67637" lon="3.10327">
        <ele>604.3447265625</ele>
        <time>2020-12-14T11:09:20.590Z</time>
      </trkpt>
      <trkpt lat="45.67607" lon="3.1022">
        <ele>603.63018798828</ele>
        <time>2020-12-14T11:09:23.431Z</time>
      </trkpt>
      <trkpt lat="45.6756" lon="3.10116">
        <ele>594.51892089844</ele>
        <time>2020-12-14T11:09:26.290Z</time>
      </trkpt>
      <trkpt lat="45.67595" lon="3.09899">
        <ele>598.28051757812</ele>
        <time>2020-12-14T11:09:29.180Z</time>
      </trkpt>
      <trkpt lat="45.67591" lon="3.09816">
        <ele>594.93475341797</ele>
        <time>2020-12-14T11:09:32.082Z</time>
      </trkpt>
      <trkpt lat="45.67589" lon="3.09744">
        <ele>597.09265136719</ele>
        <time>2020-12-14T11:09:34.994Z</time>
      </trkpt>
      <trkpt lat="45.67556" lon="3.0972">
        <ele>589.7138671875</ele>
        <time>2020-12-14T11:09:37.913Z</time>
      </trkpt>
      <trkpt lat="45.67523" lon="3.09651">
        <ele>588.55529785156</ele>
        <time>2020-12-14T11:09:40.844Z</time>
      </trkpt>
      <trkpt lat="45.67447" lon="3.09628">
        <ele>577.5048828125</ele>
        <time>2020-12-14T11:09:43.790Z</time>
      </trkpt>
      <trkpt lat="45.67436" lon="3.09321">
        <ele>581.36560058594</ele>
        <time>2020-12-14T11:09:46.780Z</time>
      </trkpt>
      <trkpt lat="45.67484" lon="3.09091">
        <ele>596.05596923828</ele>
        <time>2020-12-14T11:09:49.803Z</time>
      </trkpt>
      <trkpt lat="45.67487" lon="3.08975">
        <ele>599.04736328125</ele>
        <time>2020-12-14T11:09:52.842Z</time>
      </trkpt>
      <trkpt lat="45.67515" lon="3.08905">
        <ele>608.21649169922</ele>
        <time>2020-12-14T11:09:55.893Z</time>
      </trkpt>
      <trkpt lat="45.67553" lon="3.08877">
        <ele>620.0107421875</ele>
        <time>2020-12-14T11:09:58.952Z</time>
      </trkpt>
      <trkpt lat="45.67535" lon="3.08677">
        <ele>618.36883544922</ele>
        <time>2020-12-14T11:10:02.040Z</time>
      </trkpt>
      <trkpt lat="45.67542" lon="3.08548">
        <ele>621.38317871094</ele>
        <time>2020-12-14T11:10:05.146Z</time>
      </trkpt>
      <trkpt lat="45.67567" lon="3.08409">
        <ele>631.66741943359</ele>
        <time>2020-12-14T11:10:08.272Z</time>
      </trkpt>
      <trkpt lat="45.67553" lon="3.08321">
        <ele>631.12585449219</ele>
        <time>2020-12-14T11:10:11.411Z</time>
      </trkpt>
      <trkpt lat="45.67493" lon="3.08175">
        <ele>628.51208496094</ele>
        <time>2020-12-14T11:10:14.573Z</time>
      </trkpt>
      <trkpt lat="45.67456" lon="3.08198">
        <ele>619.51416015625</ele>
        <time>2020-12-14T11:10:17.743Z</time>
      </trkpt>
      <trkpt lat="45.67406" lon="3.08094">
        <ele>622.64581298828</ele>
        <time>2020-12-14T11:10:20.931Z</time>
      </trkpt>
      <trkpt lat="45.67388" lon="3.08075">
        <ele>621.36730957031</ele>
        <time>2020-12-14T11:10:24.123Z</time>
      </trkpt>
      <trkpt lat="45.67377" lon="3.08136">
        <ele>616.45611572266</ele>
        <time>2020-12-14T11:10:27.324Z</time>
      </trkpt>
      <trkpt lat="45.6735" lon="3.08053">
        <ele>623.29968261719</ele>
        <time>2020-12-14T11:10:30.538Z</time>
      </trkpt>
      <trkpt lat="45.67348" lon="3.07992">
        <ele>629.08410644531</ele>
        <time>2020-12-14T11:10:33.761Z</time>
      </trkpt>
      <trkpt lat="45.6739" lon="3.07778">
        <ele>636.640625</ele>
        <time>2020-12-14T11:10:37.015Z</time>
      </trkpt>
      <trkpt lat="45.67405" lon="3.07695">
        <ele>641.82537841797</ele>
        <time>2020-12-14T11:10:40.281Z</time>
      </trkpt>
      <trkpt lat="45.67434" lon="3.07623">
        <ele>643.57373046875</ele>
        <time>2020-12-14T11:10:43.559Z</time>
      </trkpt>
      <trkpt lat="45.67489" lon="3.07585">
        <ele>643.08203125</ele>
        <time>2020-12-14T11:10:46.849Z</time>
      </trkpt>
      <trkpt lat="45.6753" lon="3.07524">
        <ele>645.28033447266</ele>
        <time>2020-12-14T11:10:50.151Z</time>
      </trkpt>
      <trkpt lat="45.67504" lon="3.07492">
        <ele>646.8740234375</ele>
        <time>2020-12-14T11:10:53.460Z</time>
      </trkpt>
      <trkpt lat="45.67526" lon="3.07389">
        <ele>655.67138671875</ele>
        <time>2020-12-14T11:10:56.784Z</time>
      </trkpt>
      <trkpt lat="45.67568" lon="3.07293">
        <ele>663.51013183594</ele>
        <time>2020-12-14T11:11:00.123Z</time>
      </trkpt>
      <trkpt lat="45.67612" lon="3.06996">
        <ele>673.45135498047</ele>
        <time>2020-12-14T11:11:03.505Z</time>
      </trkpt>
      <trkpt lat="45.67615" lon="3.06873">
        <ele>674.833984375</ele>
        <time>2020-12-14T11:11:06.904Z</time>
      </trkpt>
      <trkpt lat="45.67576" lon="3.06515">
        <ele>662.25598144531</ele>
        <time>2020-12-14T11:11:10.354Z</time>
      </trkpt>
      <trkpt lat="45.67539" lon="3.06396">
        <ele>651.23815917969</ele>
        <time>2020-12-14T11:11:13.822Z</time>
      </trkpt>
      <trkpt lat="45.67529" lon="3.06272">
        <ele>649.01745605469</ele>
        <time>2020-12-14T11:11:17.308Z</time>
      </trkpt>
      <trkpt lat="45.67479" lon="3.06104">
        <ele>645.85076904297</ele>
        <time>2020-12-14T11:11:20.819Z</time>
      </trkpt>
      <trkpt lat="45.6745" lon="3.06066">
        <ele>643.73052978516</ele>
        <time>2020-12-14T11:11:24.338Z</time>
      </trkpt>
      <trkpt lat="45.67358" lon="3.05982">
        <ele>633.97747802734</ele>
        <time>2020-12-14T11:11:27.879Z</time>
      </trkpt>
      <trkpt lat="45.67339" lon="3.05846">
        <ele>632.21392822266</ele>
        <time>2020-12-14T11:11:31.440Z</time>
      </trkpt>
      <trkpt lat="45.67236" lon="3.05867">
        <ele>615.86376953125</ele>
        <time>2020-12-14T11:11:35.021Z</time>
      </trkpt>
      <trkpt lat="45.67127" lon="3.05815">
        <ele>606.45825195312</ele>
        <time>2020-12-14T11:11:38.625Z</time>
      </trkpt>
      <trkpt lat="45.67054" lon="3.05766">
        <ele>601.90771484375</ele>
        <time>2020-12-14T11:11:42.246Z</time>
      </trkpt>
      <trkpt lat="45.67001" lon="3.05731">
        <ele>602.39483642578</ele>
        <time>2020-12-14T11:11:45.878Z</time>
      </trkpt>
      <trkpt lat="45.66958" lon="3.05678">
        <ele>603.64459228516</ele>
        <time>2020-12-14T11:11:49.522Z</time>
      </trkpt>
      <trkpt lat="45.6693" lon="3.05614">
        <ele>603.60589599609</ele>
        <time>2020-12-14T11:11:53.176Z</time>
      </trkpt>
      <trkpt lat="45.66924" lon="3.0555">
        <ele>604.35095214844</ele>
        <time>2020-12-14T11:11:56.839Z</time>
      </trkpt>
      <trkpt lat="45.66895" lon="3.05474">
        <ele>604.27600097656</ele>
        <time>2020-12-14T11:12:00.514Z</time>
      </trkpt>
      <trkpt lat="45.66859" lon="3.05412">
        <ele>606.15063476562</ele>
        <time>2020-12-14T11:12:04.201Z</time>
      </trkpt>
      <trkpt lat="45.66833" lon="3.05356">
        <ele>609.22375488281</ele>
        <time>2020-12-14T11:12:07.897Z</time>
      </trkpt>
      <trkpt lat="45.66827" lon="3.05278">
        <ele>611.03839111328</ele>
        <time>2020-12-14T11:12:11.604Z</time>
      </trkpt>
      <trkpt lat="45.66811" lon="3.05186">
        <ele>612.26635742188</ele>
        <time>2020-12-14T11:12:15.325Z</time>
      </trkpt>
      <trkpt lat="45.66819" lon="3.05109">
        <ele>617.71887207031</ele>
        <time>2020-12-14T11:12:19.056Z</time>
      </trkpt>
      <trkpt lat="45.66821" lon="3.05012">
        <ele>622.52502441406</ele>
        <time>2020-12-14T11:12:22.801Z</time>
      </trkpt>
      <trkpt lat="45.66804" lon="3.04962">
        <ele>623.51525878906</ele>
        <time>2020-12-14T11:12:26.554Z</time>
      </trkpt>
      <trkpt lat="45.66803" lon="3.04929">
        <ele>625.87884521484</ele>
        <time>2020-12-14T11:12:30.311Z</time>
      </trkpt>
      <trkpt lat="45.66758" lon="3.04804">
        <ele>633.03204345703</ele>
        <time>2020-12-14T11:12:34.088Z</time>
      </trkpt>
      <trkpt lat="45.66724" lon="3.04759">
        <ele>631.72943115234</ele>
        <time>2020-12-14T11:12:37.874Z</time>
      </trkpt>
      <trkpt lat="45.66718" lon="3.04652">
        <ele>635.74645996094</ele>
        <time>2020-12-14T11:12:41.675Z</time>
      </trkpt>
      <trkpt lat="45.66727" lon="3.04584">
        <ele>638.16174316406</ele>
        <time>2020-12-14T11:12:45.486Z</time>
      </trkpt>
      <trkpt lat="45.66737" lon="3.04537">
        <ele>640.59014892578</ele>
        <time>2020-12-14T11:12:49.304Z</time>
      </trkpt>
      <trkpt lat="45.66769" lon="3.04504">
        <ele>640.53259277344</ele>
        <time>2020-12-14T11:12:53.130Z</time>
      </trkpt>
      <trkpt lat="45.66793" lon="3.04496">
        <ele>641.57598876953</ele>
        <time>2020-12-14T11:12:56.961Z</time>
      </trkpt>
      <trkpt lat="45.66813" lon="3.0448">
        <ele>643.58459472656</ele>
        <time>2020-12-14T11:13:00.797Z</time>
      </trkpt>
      <trkpt lat="45.66795" lon="3.04475">
        <ele>642.33184814453</ele>
        <time>2020-12-14T11:13:04.636Z</time>
      </trkpt>
      <trkpt lat="45.66789" lon="3.04458">
        <ele>643.00616455078</ele>
        <time>2020-12-14T11:13:08.478Z</time>
      </trkpt>
      <trkpt lat="45.66788" lon="3.04409">
        <ele>646.33355712891</ele>
        <time>2020-12-14T11:13:12.327Z</time>
      </trkpt>
      <trkpt lat="45.66758" lon="3.04297">
        <ele>656.44842529297</ele>
        <time>2020-12-14T11:13:16.193Z</time>
      </trkpt>
      <trkpt lat="45.66751" lon="3.0426">
        <ele>662.93695068359</ele>
        <time>2020-12-14T11:13:20.064Z</time>
      </trkpt>
      <trkpt lat="45.66722" lon="3.04208">
        <ele>669.52807617188</ele>
        <time>2020-12-14T11:13:23.944Z</time>
      </trkpt>
      <trkpt lat="45.66713" lon="3.04219">
        <ele>667.56677246094</ele>
        <time>2020-12-14T11:13:27.827Z</time>
      </trkpt>
      <trkpt lat="45.66709" lon="3.04258">
        <ele>661.62579345703</ele>
        <time>2020-12-14T11:13:31.715Z</time>
      </trkpt>
      <trkpt lat="45.66694" lon="3.04279">
        <ele>662.76580810547</ele>
        <time>2020-12-14T11:13:35.608Z</time>
      </trkpt>
      <trkpt lat="45.66677" lon="3.04273">
        <ele>665.50616455078</ele>
        <time>2020-12-14T11:13:39.504Z</time>
      </trkpt>
      <trkpt lat="45.66624" lon="3.04206">
        <ele>679.43310546875</ele>
        <time>2020-12-14T11:13:43.414Z</time>
      </trkpt>
      <trkpt lat="45.66595" lon="3.04191">
        <ele>686.44958496094</ele>
        <time>2020-12-14T11:13:47.330Z</time>
      </trkpt>
      <trkpt lat="45.66516" lon="3.04141">
        <ele>703.76385498047</ele>
        <time>2020-12-14T11:13:51.264Z</time>
      </trkpt>
      <trkpt lat="45.66541" lon="3.04019">
        <ele>718.31799316406</ele>
        <time>2020-12-14T11:13:55.215Z</time>
      </trkpt>
      <trkpt lat="45.66478" lon="3.03963">
        <ele>729.57806396484</ele>
        <time>2020-12-14T11:13:59.181Z</time>
      </trkpt>
      <trkpt lat="45.6644" lon="3.03907">
        <ele>733.39416503906</ele>
        <time>2020-12-14T11:14:03.158Z</time>
      </trkpt>
      <trkpt lat="45.66438" lon="3.03867">
        <ele>735.81188964844</ele>
        <time>2020-12-14T11:14:07.141Z</time>
      </trkpt>
      <trkpt lat="45.66465" lon="3.03828">
        <ele>741.03967285156</ele>
        <time>2020-12-14T11:14:11.132Z</time>
      </trkpt>
      <trkpt lat="45.66475" lon="3.03772">
        <ele>746.38824462891</ele>
        <time>2020-12-14T11:14:15.131Z</time>
      </trkpt>
      <trkpt lat="45.66454" lon="3.03701">
        <ele>749.45190429688</ele>
        <time>2020-12-14T11:14:19.140Z</time>
      </trkpt>
      <trkpt lat="45.66427" lon="3.03643">
        <ele>747.08032226562</ele>
        <time>2020-12-14T11:14:23.159Z</time>
      </trkpt>
      <trkpt lat="45.66443" lon="3.03591">
        <ele>754.92352294922</ele>
        <time>2020-12-14T11:14:27.186Z</time>
      </trkpt>
      <trkpt lat="45.66527" lon="3.03266">
        <ele>778.89984130859</ele>
        <time>2020-12-14T11:14:31.262Z</time>
      </trkpt>
      <trkpt lat="45.6658" lon="3.031">
        <ele>784.81951904297</ele>
        <time>2020-12-14T11:14:35.363Z</time>
      </trkpt>
      <trkpt lat="45.66599" lon="3.02959">
        <ele>790.03192138672</ele>
        <time>2020-12-14T11:14:39.485Z</time>
      </trkpt>
      <trkpt lat="45.66619" lon="3.02928">
        <ele>792.11596679688</ele>
        <time>2020-12-14T11:14:43.612Z</time>
      </trkpt>
      <trkpt lat="45.66643" lon="3.0292">
        <ele>794.77087402344</ele>
        <time>2020-12-14T11:14:47.744Z</time>
      </trkpt>
      <trkpt lat="45.66667" lon="3.02847">
        <ele>795.90356445312</ele>
        <time>2020-12-14T11:14:51.888Z</time>
      </trkpt>
      <trkpt lat="45.66655" lon="3.02785">
        <ele>789.42785644531</ele>
        <time>2020-12-14T11:14:56.040Z</time>
      </trkpt>
      <trkpt lat="45.66669" lon="3.02713">
        <ele>784.04083251953</ele>
        <time>2020-12-14T11:15:00.203Z</time>
      </trkpt>
      <trkpt lat="45.66653" lon="3.02653">
        <ele>777.82409667969</ele>
        <time>2020-12-14T11:15:04.375Z</time>
      </trkpt>
      <trkpt lat="45.66641" lon="3.02574">
        <ele>774.04125976562</ele>
        <time>2020-12-14T11:15:08.558Z</time>
      </trkpt>
      <trkpt lat="45.66599" lon="3.02523">
        <ele>768.92761230469</ele>
        <time>2020-12-14T11:15:12.752Z</time>
      </trkpt>
      <trkpt lat="45.66545" lon="3.02412">
        <ele>772.47967529297</ele>
        <time>2020-12-14T11:15:16.965Z</time>
      </trkpt>
      <trkpt lat="45.66547" lon="3.02397">
        <ele>774.81927490234</ele>
        <time>2020-12-14T11:15:21.181Z</time>
      </trkpt>
      <trkpt lat="45.66723" lon="3.02492">
        <ele>790.93426513672</ele>
        <time>2020-12-14T11:15:25.434Z</time>
      </trkpt>
      <trkpt lat="45.66879" lon="3.02602">
        <ele>803.62860107422</ele>
        <time>2020-12-14T11:15:29.722Z</time>
      </trkpt>
      <trkpt lat="45.66944" lon="3.02609">
        <ele>801.48913574219</ele>
        <time>2020-12-14T11:15:34.023Z</time>
      </trkpt>
      <trkpt lat="45.66997" lon="3.02549">
        <ele>806.20202636719</ele>
        <time>2020-12-14T11:15:38.338Z</time>
      </trkpt>
      <trkpt lat="45.67045" lon="3.02414">
        <ele>811.06640625</ele>
        <time>2020-12-14T11:15:42.674Z</time>
      </trkpt>
      <trkpt lat="45.67099" lon="3.02131">
        <ele>816.07659912109</ele>
        <time>2020-12-14T11:15:47.051Z</time>
      </trkpt>
      <trkpt lat="45.67127" lon="3.01993">
        <ele>821.96398925781</ele>
        <time>2020-12-14T11:15:51.448Z</time>
      </trkpt>
      <trkpt lat="45.67165" lon="3.0187">
        <ele>829.02471923828</ele>
        <time>2020-12-14T11:15:55.864Z</time>
      </trkpt>
      <trkpt lat="45.6714" lon="3.01773">
        <ele>829.78247070312</ele>
        <time>2020-12-14T11:16:00.295Z</time>
      </trkpt>
      <trkpt lat="45.67175" lon="3.01571">
        <ele>829.47259521484</ele>
        <time>2020-12-14T11:16:04.755Z</time>
      </trkpt>
      <trkpt lat="45.67228" lon="3.01369">
        <ele>822.42071533203</ele>
        <time>2020-12-14T11:16:09.245Z</time>
      </trkpt>
      <trkpt lat="45.67263" lon="3.01305">
        <ele>826.44073486328</ele>
        <time>2020-12-14T11:16:13.746Z</time>
      </trkpt>
      <trkpt lat="45.6727" lon="3.01244">
        <ele>824.96148681641</ele>
        <time>2020-12-14T11:16:18.256Z</time>
      </trkpt>
      <trkpt lat="45.67252" lon="3.01175">
        <ele>817.49743652344</ele>
        <time>2020-12-14T11:16:22.776Z</time>
      </trkpt>
      <trkpt lat="45.67262" lon="3.01094">
        <ele>813.73968505859</ele>
        <time>2020-12-14T11:16:27.308Z</time>
      </trkpt>
      <trkpt lat="45.6725" lon="3.01034">
        <ele>814.10223388672</ele>
        <time>2020-12-14T11:16:31.849Z</time>
      </trkpt>
      <trkpt lat="45.6722" lon="3.00925">
        <ele>817.00787353516</ele>
        <time>2020-12-14T11:16:36.406Z</time>
      </trkpt>
      <trkpt lat="45.67226" lon="3.00837">
        <ele>817.95440673828</ele>
        <time>2020-12-14T11:16:40.976Z</time>
      </trkpt>
      <trkpt lat="45.67246" lon="3.00736">
        <ele>816.27313232422</ele>
        <time>2020-12-14T11:16:45.560Z</time>
      </trkpt>
      <trkpt lat="45.67168" lon="3.00702">
        <ele>816.68225097656</ele>
        <time>2020-12-14T11:16:50.161Z</time>
      </trkpt>
      <trkpt lat="45.67154" lon="3.0064">
        <ele>817</ele>
        <time>2020-12-14T11:16:54.771Z</time>
      </trkpt>
      <trkpt lat="45.67171" lon="3.00558">
        <ele>817.82232666016</ele>
        <time>2020-12-14T11:16:59.393Z</time>
      </trkpt>
      <trkpt lat="45.67217" lon="3.00509">
        <ele>817.04028320312</ele>
        <time>2020-12-14T11:17:04.026Z</time>
      </trkpt>
      <trkpt lat="45.67247" lon="3.00468">
        <ele>819.47943115234</ele>
        <time>2020-12-14T11:17:08.667Z</time>
      </trkpt>
      <trkpt lat="45.67234" lon="3.00367">
        <ele>820.95190429688</ele>
        <time>2020-12-14T11:17:13.323Z</time>
      </trkpt>
      <trkpt lat="45.67196" lon="3.00319">
        <ele>821.24267578125</ele>
        <time>2020-12-14T11:17:17.989Z</time>
      </trkpt>
      <trkpt lat="45.67166" lon="3.00244">
        <ele>824.30462646484</ele>
        <time>2020-12-14T11:17:22.667Z</time>
      </trkpt>
      <trkpt lat="45.67129" lon="3.00165">
        <ele>825.61114501953</ele>
        <time>2020-12-14T11:17:27.358Z</time>
      </trkpt>
      <trkpt lat="45.67103" lon="3.00066">
        <ele>832.63787841797</ele>
        <time>2020-12-14T11:17:32.064Z</time>
      </trkpt>
      <trkpt lat="45.67089" lon="3.00028">
        <ele>833.98114013672</ele>
        <time>2020-12-14T11:17:36.776Z</time>
      </trkpt>
      <trkpt lat="45.67094" lon="2.99954">
        <ele>838.46099853516</ele>
        <time>2020-12-14T11:17:41.499Z</time>
      </trkpt>
      <trkpt lat="45.67187" lon="2.99888">
        <ele>849.34649658203</ele>
        <time>2020-12-14T11:17:46.242Z</time>
      </trkpt>
      <trkpt lat="45.67258" lon="2.99875">
        <ele>855.12158203125</ele>
        <time>2020-12-14T11:17:51.000Z</time>
      </trkpt>
      <trkpt lat="45.67392" lon="2.99742">
        <ele>856.13409423828</ele>
        <time>2020-12-14T11:17:55.790Z</time>
      </trkpt>
      <trkpt lat="45.67424" lon="2.99763">
        <ele>860.18450927734</ele>
        <time>2020-12-14T11:18:00.587Z</time>
      </trkpt>
      <trkpt lat="45.67432" lon="2.9984">
        <ele>859.29608154297</ele>
        <time>2020-12-14T11:18:05.395Z</time>
      </trkpt>
      <trkpt lat="45.67475" lon="2.99842">
        <ele>862.54858398438</ele>
        <time>2020-12-14T11:18:10.212Z</time>
      </trkpt>
      <trkpt lat="45.67544" lon="2.99775">
        <ele>873.97332763672</ele>
        <time>2020-12-14T11:18:15.046Z</time>
      </trkpt>
      <trkpt lat="45.67591" lon="2.99772">
        <ele>875.90942382812</ele>
        <time>2020-12-14T11:18:19.889Z</time>
      </trkpt>
      <trkpt lat="45.67642" lon="2.99813">
        <ele>877.9638671875</ele>
        <time>2020-12-14T11:18:24.744Z</time>
      </trkpt>
      <trkpt lat="45.67661" lon="2.99809">
        <ele>880.00354003906</ele>
        <time>2020-12-14T11:18:29.603Z</time>
      </trkpt>
      <trkpt lat="45.67672" lon="2.9983">
        <ele>882.58306884766</ele>
        <time>2020-12-14T11:18:34.465Z</time>
      </trkpt>
      <trkpt lat="45.67701" lon="2.9981">
        <ele>883.86212158203</ele>
        <time>2020-12-14T11:18:39.334Z</time>
      </trkpt>
      <trkpt lat="45.67736" lon="2.99804">
        <ele>884.81597900391</ele>
        <time>2020-12-14T11:18:44.210Z</time>
      </trkpt>
      <trkpt lat="45.67784" lon="2.99809">
        <ele>887.61590576172</ele>
        <time>2020-12-14T11:18:49.095Z</time>
      </trkpt>
      <trkpt lat="45.67825" lon="2.99777">
        <ele>882.24035644531</ele>
        <time>2020-12-14T11:18:53.990Z</time>
      </trkpt>
      <trkpt lat="45.67859" lon="2.99777">
        <ele>883.46417236328</ele>
        <time>2020-12-14T11:18:58.892Z</time>
      </trkpt>
      <trkpt lat="45.67894" lon="2.998">
        <ele>884.63385009766</ele>
        <time>2020-12-14T11:19:03.801Z</time>
      </trkpt>
      <trkpt lat="45.67951" lon="2.99862">
        <ele>883.38604736328</ele>
        <time>2020-12-14T11:19:08.725Z</time>
      </trkpt>
      <trkpt lat="45.67985" lon="2.99882">
        <ele>882.78485107422</ele>
        <time>2020-12-14T11:19:13.656Z</time>
      </trkpt>
      <trkpt lat="45.6816" lon="2.9988">
        <ele>881.25659179688</ele>
        <time>2020-12-14T11:19:18.622Z</time>
      </trkpt>
      <trkpt lat="45.68202" lon="2.99867">
        <ele>880.42578125</ele>
        <time>2020-12-14T11:19:23.597Z</time>
      </trkpt>
      <trkpt lat="45.68228" lon="2.99897">
        <ele>880</ele>
        <time>2020-12-14T11:19:28.578Z</time>
      </trkpt>
      <trkpt lat="45.68289" lon="2.99892">
        <ele>879.77325439453</ele>
        <time>2020-12-14T11:19:33.572Z</time>
      </trkpt>
      <trkpt lat="45.68357" lon="2.99882">
        <ele>879.16259765625</ele>
        <time>2020-12-14T11:19:38.579Z</time>
      </trkpt>
      <trkpt lat="45.68589" lon="2.99953">
        <ele>865.67211914062</ele>
        <time>2020-12-14T11:19:43.634Z</time>
      </trkpt>
      <trkpt lat="45.68624" lon="2.99965">
        <ele>865.96008300781</ele>
        <time>2020-12-14T11:19:48.696Z</time>
      </trkpt>
      <trkpt lat="45.68681" lon="2.99998">
        <ele>867.82019042969</ele>
        <time>2020-12-14T11:19:53.770Z</time>
      </trkpt>
      <trkpt lat="45.68824" lon="2.99935">
        <ele>867.35003662109</ele>
        <time>2020-12-14T11:19:58.874Z</time>
      </trkpt>
      <trkpt lat="45.68896" lon="2.99862">
        <ele>866.31805419922</ele>
        <time>2020-12-14T11:20:03.996Z</time>
      </trkpt>
      <trkpt lat="45.68973" lon="2.99847">
        <ele>869.68103027344</ele>
        <time>2020-12-14T11:20:09.133Z</time>
      </trkpt>
      <trkpt lat="45.69138" lon="2.99753">
        <ele>885.14855957031</ele>
        <time>2020-12-14T11:20:14.306Z</time>
      </trkpt>
      <trkpt lat="45.69174" lon="2.99723">
        <ele>891.33953857422</ele>
        <time>2020-12-14T11:20:19.487Z</time>
      </trkpt>
      <trkpt lat="45.6924" lon="2.99629">
        <ele>896.13330078125</ele>
        <time>2020-12-14T11:20:24.687Z</time>
      </trkpt>
      <trkpt lat="45.69268" lon="2.99598">
        <ele>900.95037841797</ele>
        <time>2020-12-14T11:20:29.894Z</time>
      </trkpt>
      <trkpt lat="45.69264" lon="2.99612">
        <ele>900.16094970703</ele>
        <time>2020-12-14T11:20:35.103Z</time>
      </trkpt>
      <trkpt lat="45.69206" lon="2.99807">
        <ele>904.17291259766</ele>
        <time>2020-12-14T11:20:40.342Z</time>
      </trkpt>
      <trkpt lat="45.69219" lon="2.99795">
        <ele>905.22875976562</ele>
        <time>2020-12-14T11:20:45.584Z</time>
      </trkpt>
      <trkpt lat="45.69273" lon="2.9974">
        <ele>908.79821777344</ele>
        <time>2020-12-14T11:20:50.839Z</time>
      </trkpt>
      <trkpt lat="45.69351" lon="2.99712">
        <ele>910.95843505859</ele>
        <time>2020-12-14T11:20:56.110Z</time>
      </trkpt>
      <trkpt lat="45.69357" lon="2.99728">
        <ele>912.39819335938</ele>
        <time>2020-12-14T11:21:01.384Z</time>
      </trkpt>
      <trkpt lat="45.69385" lon="2.99737">
        <ele>914.38983154297</ele>
        <time>2020-12-14T11:21:06.663Z</time>
      </trkpt>
      <trkpt lat="45.69409" lon="2.99758">
        <ele>914.09783935547</ele>
        <time>2020-12-14T11:21:11.948Z</time>
      </trkpt>
      <trkpt lat="45.6942" lon="2.99779">
        <ele>914.43737792969</ele>
        <time>2020-12-14T11:21:17.237Z</time>
      </trkpt>
      <trkpt lat="45.6945" lon="2.99939">
        <ele>925.23779296875</ele>
        <time>2020-12-14T11:21:22.549Z</time>
      </trkpt>
      <trkpt lat="45.69446" lon="2.9996">
        <ele>926.30560302734</ele>
        <time>2020-12-14T11:21:27.864Z</time>
      </trkpt>
      <trkpt lat="45.69428" lon="3.00011">
        <ele>931.06036376953</ele>
        <time>2020-12-14T11:21:33.187Z</time>
      </trkpt>
      <trkpt lat="45.69394" lon="3.00062">
        <ele>937.29284667969</ele>
        <time>2020-12-14T11:21:38.520Z</time>
      </trkpt>
      <trkpt lat="45.69366" lon="3.00115">
        <ele>942.72985839844</ele>
        <time>2020-12-14T11:21:43.862Z</time>
      </trkpt>
      <trkpt lat="45.69355" lon="3.00148">
        <ele>945.61108398438</ele>
        <time>2020-12-14T11:21:49.209Z</time>
      </trkpt>
      <trkpt lat="45.69349" lon="3.00184">
        <ele>949.37738037109</ele>
        <time>2020-12-14T11:21:54.562Z</time>
      </trkpt>
      <trkpt lat="45.69341" lon="3.00235">
        <ele>955.64410400391</ele>
        <time>2020-12-14T11:21:59.922Z</time>
      </trkpt>
      <trkpt lat="45.69326" lon="3.0032">
        <ele>962.91400146484</ele>
        <time>2020-12-14T11:22:05.294Z</time>
      </trkpt>
      <trkpt lat="45.69294" lon="3.00384">
        <ele>968.83538818359</ele>
        <time>2020-12-14T11:22:10.677Z</time>
      </trkpt>
      <trkpt lat="45.69294" lon="3.00388">
        <ele>969.21929931641</ele>
        <time>2020-12-14T11:22:16.061Z</time>
      </trkpt>
      <trkpt lat="45.69293" lon="3.00396">
        <ele>969.96319580078</ele>
        <time>2020-12-14T11:22:21.446Z</time>
      </trkpt>
      <trkpt lat="45.69276" lon="3.00446">
        <ele>976.03594970703</ele>
        <time>2020-12-14T11:22:26.839Z</time>
      </trkpt>
      <trkpt lat="45.69219" lon="3.00542">
        <ele>988.68658447266</ele>
        <time>2020-12-14T11:22:32.249Z</time>
      </trkpt>
      <trkpt lat="45.69147" lon="3.00631">
        <ele>995.32055664062</ele>
        <time>2020-12-14T11:22:37.678Z</time>
      </trkpt>
      <trkpt lat="45.69113" lon="3.00686">
        <ele>1003.5880126953</ele>
        <time>2020-12-14T11:22:43.118Z</time>
      </trkpt>
      <trkpt lat="45.69103" lon="3.00716">
        <ele>1007.0673828125</ele>
        <time>2020-12-14T11:22:48.562Z</time>
      </trkpt>
      <trkpt lat="45.69078" lon="3.00755">
        <ele>1011.2438964844</ele>
        <time>2020-12-14T11:22:54.014Z</time>
      </trkpt>
      <trkpt lat="45.69027" lon="3.00793">
        <ele>1014.9724731445</ele>
        <time>2020-12-14T11:22:59.477Z</time>
      </trkpt>
      <trkpt lat="45.68989" lon="3.00831">
        <ele>1017.8804931641</ele>
        <time>2020-12-14T11:23:04.949Z</time>
      </trkpt>
      <trkpt lat="45.68956" lon="3.00909">
        <ele>1020.8917236328</ele>
        <time>2020-12-14T11:23:10.434Z</time>
      </trkpt>
      <trkpt lat="45.68953" lon="3.00919">
        <ele>1020.9141235352</ele>
        <time>2020-12-14T11:23:15.921Z</time>
      </trkpt>
      <trkpt lat="45.6891" lon="3.01029">
        <ele>1021.4277954102</ele>
        <time>2020-12-14T11:23:21.425Z</time>
      </trkpt>
      <trkpt lat="45.68892" lon="3.01157">
        <ele>1025.9576416016</ele>
        <time>2020-12-14T11:23:26.948Z</time>
      </trkpt>
      <trkpt lat="45.68884" lon="3.01247">
        <ele>1025.6973876953</ele>
        <time>2020-12-14T11:23:32.483Z</time>
      </trkpt>
      <trkpt lat="45.68871" lon="3.01348">
        <ele>1025.6566162109</ele>
        <time>2020-12-14T11:23:38.033Z</time>
      </trkpt>
      <trkpt lat="45.68816" lon="3.01555">
        <ele>1018.6741333008</ele>
        <time>2020-12-14T11:23:43.614Z</time>
      </trkpt>
      <trkpt lat="45.688" lon="3.0167">
        <ele>1013.9033813477</ele>
        <time>2020-12-14T11:23:49.211Z</time>
      </trkpt>
      <trkpt lat="45.68764" lon="3.01764">
        <ele>1007.5489501953</ele>
        <time>2020-12-14T11:23:54.823Z</time>
      </trkpt>
      <trkpt lat="45.68764" lon="3.01829">
        <ele>1005.1757202148</ele>
        <time>2020-12-14T11:24:00.444Z</time>
      </trkpt>
      <trkpt lat="45.6875" lon="3.01886">
        <ele>1001.2070922852</ele>
        <time>2020-12-14T11:24:06.074Z</time>
      </trkpt>
      <trkpt lat="45.68743" lon="3.02023">
        <ele>993.78448486328</ele>
        <time>2020-12-14T11:24:11.723Z</time>
      </trkpt>
      <trkpt lat="45.68706" lon="3.02133">
        <ele>986.33953857422</ele>
        <time>2020-12-14T11:24:17.389Z</time>
      </trkpt>
      <trkpt lat="45.68704" lon="3.02272">
        <ele>977.87359619141</ele>
        <time>2020-12-14T11:24:23.075Z</time>
      </trkpt>
      <trkpt lat="45.68727" lon="3.02428">
        <ele>971.35125732422</ele>
        <time>2020-12-14T11:24:28.783Z</time>
      </trkpt>
      <trkpt lat="45.68717" lon="3.02532">
        <ele>964.43585205078</ele>
        <time>2020-12-14T11:24:34.506Z</time>
      </trkpt>
      <trkpt lat="45.68673" lon="3.02724">
        <ele>950.67749023438</ele>
        <time>2020-12-14T11:24:40.257Z</time>
      </trkpt>
      <trkpt lat="45.6864" lon="3.02774">
        <ele>950.12231445312</ele>
        <time>2020-12-14T11:24:46.018Z</time>
      </trkpt>
      <trkpt lat="45.68534" lon="3.02988">
        <ele>940.68524169922</ele>
        <time>2020-12-14T11:24:51.816Z</time>
      </trkpt>
      <trkpt lat="45.68382" lon="3.02918">
        <ele>947.23779296875</ele>
        <time>2020-12-14T11:24:57.646Z</time>
      </trkpt>
      <trkpt lat="45.68298" lon="3.02762">
        <ele>949.28277587891</ele>
        <time>2020-12-14T11:25:03.503Z</time>
      </trkpt>
      <trkpt lat="45.68235" lon="3.0261">
        <ele>951.03167724609</ele>
        <time>2020-12-14T11:25:09.385Z</time>
      </trkpt>
      <trkpt lat="45.68206" lon="3.02556">
        <ele>949.39270019531</ele>
        <time>2020-12-14T11:25:15.276Z</time>
      </trkpt>
      <trkpt lat="45.68198" lon="3.02549">
        <ele>948.12091064453</ele>
        <time>2020-12-14T11:25:21.169Z</time>
      </trkpt>
      <trkpt lat="45.68197" lon="3.02545">
        <ele>948.03692626953</ele>
        <time>2020-12-14T11:25:27.063Z</time>
      </trkpt>
      <trkpt lat="45.68194" lon="3.02553">
        <ele>947.30505371094</ele>
        <time>2020-12-14T11:25:32.958Z</time>
      </trkpt>
      <trkpt lat="45.68159" lon="3.02679">
        <ele>948.39855957031</ele>
        <time>2020-12-14T11:25:38.872Z</time>
      </trkpt>
      <trkpt lat="45.68148" lon="3.02829">
        <ele>952.43493652344</ele>
        <time>2020-12-14T11:25:44.807Z</time>
      </trkpt>
      <trkpt lat="45.6817" lon="3.02969">
        <ele>948.61517333984</ele>
        <time>2020-12-14T11:25:50.762Z</time>
      </trkpt>
      <trkpt lat="45.68163" lon="3.03224">
        <ele>940.68835449219</ele>
        <time>2020-12-14T11:25:56.753Z</time>
      </trkpt>
      <trkpt lat="45.68165" lon="3.03273">
        <ele>937.69940185547</ele>
        <time>2020-12-14T11:26:02.751Z</time>
      </trkpt>
      <trkpt lat="45.6819" lon="3.03348">
        <ele>935.12609863281</ele>
        <time>2020-12-14T11:26:08.761Z</time>
      </trkpt>
      <trkpt lat="45.68171" lon="3.03387">
        <ele>933.51190185547</ele>
        <time>2020-12-14T11:26:14.777Z</time>
      </trkpt>
      <trkpt lat="45.68138" lon="3.03398">
        <ele>931.40026855469</ele>
        <time>2020-12-14T11:26:20.800Z</time>
      </trkpt>
      <trkpt lat="45.68083" lon="3.03411">
        <ele>924.17523193359</ele>
        <time>2020-12-14T11:26:26.834Z</time>
      </trkpt>
      <trkpt lat="45.6807" lon="3.03438">
        <ele>923.32873535156</ele>
        <time>2020-12-14T11:26:32.873Z</time>
      </trkpt>
      <trkpt lat="45.68074" lon="3.03516">
        <ele>923.34790039062</ele>
        <time>2020-12-14T11:26:38.923Z</time>
      </trkpt>
      <trkpt lat="45.68056" lon="3.03683">
        <ele>915.05297851562</ele>
        <time>2020-12-14T11:26:44.996Z</time>
      </trkpt>
      <trkpt lat="45.6805" lon="3.03877">
        <ele>909.08917236328</ele>
        <time>2020-12-14T11:26:51.097Z</time>
      </trkpt>
      <trkpt lat="45.68031" lon="3.03912">
        <ele>905.92779541016</ele>
        <time>2020-12-14T11:26:57.204Z</time>
      </trkpt>
      <trkpt lat="45.68022" lon="3.04166">
        <ele>897.37005615234</ele>
        <time>2020-12-14T11:27:03.347Z</time>
      </trkpt>
      <trkpt lat="45.68022" lon="3.04186">
        <ele>896.64294433594</ele>
        <time>2020-12-14T11:27:09.492Z</time>
      </trkpt>
      <trkpt lat="45.68023" lon="3.04226">
        <ele>894.78326416016</ele>
        <time>2020-12-14T11:27:15.643Z</time>
      </trkpt>
      <trkpt lat="45.68081" lon="3.04294">
        <ele>893.32250976562</ele>
        <time>2020-12-14T11:27:21.809Z</time>
      </trkpt>
      <trkpt lat="45.68118" lon="3.04511">
        <ele>878.72735595703</ele>
        <time>2020-12-14T11:27:28.006Z</time>
      </trkpt>
      <trkpt lat="45.68092" lon="3.04607">
        <ele>867.11547851562</ele>
        <time>2020-12-14T11:27:34.218Z</time>
      </trkpt>
      <trkpt lat="45.68063" lon="3.04669">
        <ele>860.86639404297</ele>
        <time>2020-12-14T11:27:40.440Z</time>
      </trkpt>
      <trkpt lat="45.68045" lon="3.04761">
        <ele>854.46142578125</ele>
        <time>2020-12-14T11:27:46.676Z</time>
      </trkpt>
      <trkpt lat="45.68004" lon="3.04875">
        <ele>844.91711425781</ele>
        <time>2020-12-14T11:27:52.930Z</time>
      </trkpt>
      <trkpt lat="45.68002" lon="3.04934">
        <ele>844.26776123047</ele>
        <time>2020-12-14T11:27:59.192Z</time>
      </trkpt>
      <trkpt lat="45.68103" lon="3.05054">
        <ele>836.62731933594</ele>
        <time>2020-12-14T11:28:05.480Z</time>
      </trkpt>
      <trkpt lat="45.68219" lon="3.05145">
        <ele>831.82055664062</ele>
        <time>2020-12-14T11:28:11.795Z</time>
      </trkpt>
      <trkpt lat="45.68241" lon="3.05236">
        <ele>823.80517578125</ele>
        <time>2020-12-14T11:28:18.123Z</time>
      </trkpt>
      <trkpt lat="45.68272" lon="3.05376">
        <ele>814.75573730469</ele>
        <time>2020-12-14T11:28:24.472Z</time>
      </trkpt>
      <trkpt lat="45.68286" lon="3.05418">
        <ele>813.1337890625</ele>
        <time>2020-12-14T11:28:30.827Z</time>
      </trkpt>
      <trkpt lat="45.68306" lon="3.0544">
        <ele>812.97662353516</ele>
        <time>2020-12-14T11:28:37.187Z</time>
      </trkpt>
      <trkpt lat="45.68353" lon="3.05438">
        <ele>810.42565917969</ele>
        <time>2020-12-14T11:28:43.557Z</time>
      </trkpt>
      <trkpt lat="45.68387" lon="3.05488">
        <ele>805.87872314453</ele>
        <time>2020-12-14T11:28:49.937Z</time>
      </trkpt>
      <trkpt lat="45.68469" lon="3.05677">
        <ele>787.09783935547</ele>
        <time>2020-12-14T11:28:56.348Z</time>
      </trkpt>
      <trkpt lat="45.68453" lon="3.05883">
        <ele>778.91003417969</ele>
        <time>2020-12-14T11:29:02.788Z</time>
      </trkpt>
      <trkpt lat="45.68455" lon="3.06784">
        <ele>743.50402832031</ele>
        <time>2020-12-14T11:29:09.354Z</time>
      </trkpt>
      <trkpt lat="45.68388" lon="3.07002">
        <ele>735.23193359375</ele>
        <time>2020-12-14T11:29:15.953Z</time>
      </trkpt>
      <trkpt lat="45.68387" lon="3.07218">
        <ele>729.41461181641</ele>
        <time>2020-12-14T11:29:22.583Z</time>
      </trkpt>
      <trkpt lat="45.68409" lon="3.07286">
        <ele>726.77709960938</ele>
        <time>2020-12-14T11:29:29.223Z</time>
      </trkpt>
      <trkpt lat="45.68414" lon="3.0737">
        <ele>724.38653564453</ele>
        <time>2020-12-14T11:29:35.875Z</time>
      </trkpt>
      <trkpt lat="45.68382" lon="3.07606">
        <ele>720.15979003906</ele>
        <time>2020-12-14T11:29:42.561Z</time>
      </trkpt>
      <trkpt lat="45.68421" lon="3.07619">
        <ele>717.12347412109</ele>
        <time>2020-12-14T11:29:49.255Z</time>
      </trkpt>
      <trkpt lat="45.68516" lon="3.07639">
        <ele>705.02117919922</ele>
        <time>2020-12-14T11:29:55.968Z</time>
      </trkpt>
      <trkpt lat="45.68536" lon="3.07603">
        <ele>699.56573486328</ele>
        <time>2020-12-14T11:30:02.687Z</time>
      </trkpt>
      <trkpt lat="45.68583" lon="3.07521">
        <ele>687.45642089844</ele>
        <time>2020-12-14T11:30:09.421Z</time>
      </trkpt>
      <trkpt lat="45.68581" lon="3.07428">
        <ele>694.72454833984</ele>
        <time>2020-12-14T11:30:16.168Z</time>
      </trkpt>
      <trkpt lat="45.68601" lon="3.07306">
        <ele>702.10144042969</ele>
        <time>2020-12-14T11:30:22.933Z</time>
      </trkpt>
      <trkpt lat="45.68627" lon="3.07282">
        <ele>703.98272705078</ele>
        <time>2020-12-14T11:30:29.704Z</time>
      </trkpt>
      <trkpt lat="45.6865" lon="3.07241">
        <ele>705.86047363281</ele>
        <time>2020-12-14T11:30:36.482Z</time>
      </trkpt>
      <trkpt lat="45.68686" lon="3.07161">
        <ele>708.00573730469</ele>
        <time>2020-12-14T11:30:43.274Z</time>
      </trkpt>
      <trkpt lat="45.6879" lon="3.06994">
        <ele>696.55780029297</ele>
        <time>2020-12-14T11:30:50.097Z</time>
      </trkpt>
      <trkpt lat="45.68838" lon="3.06867">
        <ele>691.06066894531</ele>
        <time>2020-12-14T11:30:56.940Z</time>
      </trkpt>
      <trkpt lat="45.68935" lon="3.06683">
        <ele>683.44604492188</ele>
        <time>2020-12-14T11:31:03.816Z</time>
      </trkpt>
      <trkpt lat="45.68986" lon="3.06624">
        <ele>677.57806396484</ele>
        <time>2020-12-14T11:31:10.705Z</time>
      </trkpt>
      <trkpt lat="45.68994" lon="3.06599">
        <ele>678.48864746094</ele>
        <time>2020-12-14T11:31:17.597Z</time>
      </trkpt>
      <trkpt lat="45.69066" lon="3.0657">
        <ele>670.24896240234</ele>
        <time>2020-12-14T11:31:24.504Z</time>
      </trkpt>
      <trkpt lat="45.69131" lon="3.06496">
        <ele>676.39251708984</ele>
        <time>2020-12-14T11:31:31.428Z</time>
      </trkpt>
      <trkpt lat="45.69183" lon="3.065">
        <ele>666.14715576172</ele>
        <time>2020-12-14T11:31:38.362Z</time>
      </trkpt>
      <trkpt lat="45.69237" lon="3.06512">
        <ele>650.17425537109</ele>
        <time>2020-12-14T11:31:45.307Z</time>
      </trkpt>
      <trkpt lat="45.69248" lon="3.0651">
        <ele>647.12677001953</ele>
        <time>2020-12-14T11:31:52.255Z</time>
      </trkpt>
      <trkpt lat="45.6933" lon="3.06503">
        <ele>623.53247070312</ele>
        <time>2020-12-14T11:31:59.219Z</time>
      </trkpt>
      <trkpt lat="45.69379" lon="3.06453">
        <ele>614.33569335938</ele>
        <time>2020-12-14T11:32:06.195Z</time>
      </trkpt>
      <trkpt lat="45.69393" lon="3.06427">
        <ele>613.19952392578</ele>
        <time>2020-12-14T11:32:13.176Z</time>
      </trkpt>
      <trkpt lat="45.69402" lon="3.06434">
        <ele>611.86773681641</ele>
        <time>2020-12-14T11:32:20.159Z</time>
      </trkpt>
      <trkpt lat="45.69419" lon="3.06492">
        <ele>605.77807617188</ele>
        <time>2020-12-14T11:32:27.151Z</time>
      </trkpt>
      <trkpt lat="45.69412" lon="3.06572">
        <ele>601.19403076172</ele>
        <time>2020-12-14T11:32:34.154Z</time>
      </trkpt>
      <trkpt lat="45.69416" lon="3.06615">
        <ele>599.38061523438</ele>
        <time>2020-12-14T11:32:41.163Z</time>
      </trkpt>
      <trkpt lat="45.69423" lon="3.06628">
        <ele>599.140625</ele>
        <time>2020-12-14T11:32:48.174Z</time>
      </trkpt>
      <trkpt lat="45.69485" lon="3.06647">
        <ele>599.42895507812</ele>
        <time>2020-12-14T11:32:55.198Z</time>
      </trkpt>
      <trkpt lat="45.69499" lon="3.06648">
        <ele>600.43316650391</ele>
        <time>2020-12-14T11:33:02.225Z</time>
      </trkpt>
      <trkpt lat="45.69415" lon="3.06932">
        <ele>595.61047363281</ele>
        <time>2020-12-14T11:33:09.295Z</time>
      </trkpt>
      <trkpt lat="45.69417" lon="3.06977">
        <ele>595.21691894531</ele>
        <time>2020-12-14T11:33:16.371Z</time>
      </trkpt>
      <trkpt lat="45.69405" lon="3.07007">
        <ele>594.13232421875</ele>
        <time>2020-12-14T11:33:23.452Z</time>
      </trkpt>
      <trkpt lat="45.69399" lon="3.07331">
        <ele>588.55200195312</ele>
        <time>2020-12-14T11:33:30.579Z</time>
      </trkpt>
      <trkpt lat="45.6939" lon="3.07634">
        <ele>581.43334960938</ele>
        <time>2020-12-14T11:33:37.748Z</time>
      </trkpt>
      <trkpt lat="45.69397" lon="3.07641">
        <ele>582.52514648438</ele>
        <time>2020-12-14T11:33:44.919Z</time>
      </trkpt>
      <trkpt lat="45.69488" lon="3.0769">
        <ele>595.3818359375</ele>
        <time>2020-12-14T11:33:52.109Z</time>
      </trkpt>
      <trkpt lat="45.69527" lon="3.07717">
        <ele>600.52893066406</ele>
        <time>2020-12-14T11:33:59.308Z</time>
      </trkpt>
      <trkpt lat="45.69562" lon="3.07742">
        <ele>605.56567382812</ele>
        <time>2020-12-14T11:34:06.515Z</time>
      </trkpt>
      <trkpt lat="45.69585" lon="3.07756">
        <ele>609.70501708984</ele>
        <time>2020-12-14T11:34:13.727Z</time>
      </trkpt>
      <trkpt lat="45.69583" lon="3.07754">
        <ele>609.34509277344</ele>
        <time>2020-12-14T11:34:20.939Z</time>
      </trkpt>
      <trkpt lat="45.69583" lon="3.07753">
        <ele>609.34509277344</ele>
        <time>2020-12-14T11:34:28.151Z</time>
      </trkpt>
      <trkpt lat="45.69583" lon="3.07751">
        <ele>609.34509277344</ele>
        <time>2020-12-14T11:34:35.364Z</time>
      </trkpt>
      <trkpt lat="45.69583" lon="3.0775">
        <ele>609.34509277344</ele>
        <time>2020-12-14T11:34:42.577Z</time>
      </trkpt>
      <trkpt lat="45.69586" lon="3.07758">
        <ele>609.88500976562</ele>
        <time>2020-12-14T11:34:49.791Z</time>
      </trkpt>
      <trkpt lat="45.69623" lon="3.07784">
        <ele>617.71343994141</ele>
        <time>2020-12-14T11:34:57.013Z</time>
      </trkpt>
      <trkpt lat="45.6966" lon="3.07808">
        <ele>624.68359375</ele>
        <time>2020-12-14T11:35:04.244Z</time>
      </trkpt>
      <trkpt lat="45.6967" lon="3.07815">
        <ele>626.45928955078</ele>
        <time>2020-12-14T11:35:11.477Z</time>
      </trkpt>
      <trkpt lat="45.69679" lon="3.07816">
        <ele>627.80310058594</ele>
        <time>2020-12-14T11:35:18.712Z</time>
      </trkpt>
      <trkpt lat="45.69717" lon="3.07841">
        <ele>634.47393798828</ele>
        <time>2020-12-14T11:35:25.955Z</time>
      </trkpt>
      <trkpt lat="45.69755" lon="3.07867">
        <ele>639.46350097656</ele>
        <time>2020-12-14T11:35:33.206Z</time>
      </trkpt>
      <trkpt lat="45.69787" lon="3.07902">
        <ele>643.23083496094</ele>
        <time>2020-12-14T11:35:40.465Z</time>
      </trkpt>
      <trkpt lat="45.69816" lon="3.07941">
        <ele>648.00659179688</ele>
        <time>2020-12-14T11:35:47.732Z</time>
      </trkpt>
      <trkpt lat="45.69843" lon="3.07979">
        <ele>654.82147216797</ele>
        <time>2020-12-14T11:35:55.007Z</time>
      </trkpt>
      <trkpt lat="45.69871" lon="3.08025">
        <ele>662.65203857422</ele>
        <time>2020-12-14T11:36:02.291Z</time>
      </trkpt>
      <trkpt lat="45.69872" lon="3.08042">
        <ele>664.24780273438</ele>
        <time>2020-12-14T11:36:09.577Z</time>
      </trkpt>
      <trkpt lat="45.69847" lon="3.08131">
        <ele>666.59136962891</ele>
        <time>2020-12-14T11:36:16.876Z</time>
      </trkpt>
      <trkpt lat="45.69825" lon="3.08226">
        <ele>663.68432617188</ele>
        <time>2020-12-14T11:36:24.189Z</time>
      </trkpt>
      <trkpt lat="45.69803" lon="3.08397">
        <ele>656.37438964844</ele>
        <time>2020-12-14T11:36:31.527Z</time>
      </trkpt>
      <trkpt lat="45.69936" lon="3.0861">
        <ele>647.08374023438</ele>
        <time>2020-12-14T11:36:38.905Z</time>
      </trkpt>
      <trkpt lat="45.70102" lon="3.08745">
        <ele>638.15924072266</ele>
        <time>2020-12-14T11:36:46.321Z</time>
      </trkpt>
      <trkpt lat="45.7022" lon="3.08812">
        <ele>640.51513671875</ele>
        <time>2020-12-14T11:36:53.762Z</time>
      </trkpt>
      <trkpt lat="45.70235" lon="3.08839">
        <ele>637.67077636719</ele>
        <time>2020-12-14T11:37:01.208Z</time>
      </trkpt>
      <trkpt lat="45.70273" lon="3.08934">
        <ele>630.26916503906</ele>
        <time>2020-12-14T11:37:08.670Z</time>
      </trkpt>
      <trkpt lat="45.70282" lon="3.08941">
        <ele>630.41314697266</ele>
        <time>2020-12-14T11:37:16.134Z</time>
      </trkpt>
      <trkpt lat="45.70292" lon="3.08945">
        <ele>630.84509277344</ele>
        <time>2020-12-14T11:37:23.600Z</time>
      </trkpt>
      <trkpt lat="45.70303" lon="3.08945">
        <ele>631.63696289062</ele>
        <time>2020-12-14T11:37:31.068Z</time>
      </trkpt>
      <trkpt lat="45.70343" lon="3.0895">
        <ele>635.01684570312</ele>
        <time>2020-12-14T11:37:38.544Z</time>
      </trkpt>
      <trkpt lat="45.70349" lon="3.08949">
        <ele>635.7607421875</ele>
        <time>2020-12-14T11:37:46.021Z</time>
      </trkpt>
      <trkpt lat="45.70353" lon="3.08955">
        <ele>635.61676025391</ele>
        <time>2020-12-14T11:37:53.499Z</time>
      </trkpt>
      <trkpt lat="45.70386" lon="3.08978">
        <ele>636.97253417969</ele>
        <time>2020-12-14T11:38:00.985Z</time>
      </trkpt>
      <trkpt lat="45.70395" lon="3.08982">
        <ele>638.25146484375</ele>
        <time>2020-12-14T11:38:08.473Z</time>
      </trkpt>
      <trkpt lat="45.70476" lon="3.09032">
        <ele>647.51477050781</ele>
        <time>2020-12-14T11:38:15.978Z</time>
      </trkpt>
      <trkpt lat="45.70523" lon="3.09038">
        <ele>652.58654785156</ele>
        <time>2020-12-14T11:38:23.493Z</time>
      </trkpt>
      <trkpt lat="45.70568" lon="3.09032">
        <ele>659.46136474609</ele>
        <time>2020-12-14T11:38:31.017Z</time>
      </trkpt>
      <trkpt lat="45.70578" lon="3.09033">
        <ele>660.54290771484</ele>
        <time>2020-12-14T11:38:38.543Z</time>
      </trkpt>
      <trkpt lat="45.70585" lon="3.0903">
        <ele>661.33477783203</ele>
        <time>2020-12-14T11:38:46.070Z</time>
      </trkpt>
      <trkpt lat="45.70643" lon="3.09041">
        <ele>664.23162841797</ele>
        <time>2020-12-14T11:38:53.609Z</time>
      </trkpt>
      <trkpt lat="45.70658" lon="3.09042">
        <ele>664.67553710938</ele>
        <time>2020-12-14T11:39:01.151Z</time>
      </trkpt>
      <trkpt lat="45.70669" lon="3.09104">
        <ele>658.89697265625</ele>
        <time>2020-12-14T11:39:08.702Z</time>
      </trkpt>
      <trkpt lat="45.70679" lon="3.09101">
        <ele>659.52685546875</ele>
        <time>2020-12-14T11:39:16.255Z</time>
      </trkpt>
      <trkpt lat="45.70711" lon="3.09095">
        <ele>661.45855712891</ele>
        <time>2020-12-14T11:39:23.814Z</time>
      </trkpt>
      <trkpt lat="45.70782" lon="3.09074">
        <ele>660.6435546875</ele>
        <time>2020-12-14T11:39:31.388Z</time>
      </trkpt>
      <trkpt lat="45.70776" lon="3.09023">
        <ele>664.70391845703</ele>
        <time>2020-12-14T11:39:38.969Z</time>
      </trkpt>
      <trkpt lat="45.7108" lon="3.08971">
        <ele>657.76324462891</ele>
        <time>2020-12-14T11:39:46.611Z</time>
      </trkpt>
      <trkpt lat="45.71078" lon="3.08975">
        <ele>657.66729736328</ele>
        <time>2020-12-14T11:39:54.254Z</time>
      </trkpt>
      <trkpt lat="45.71082" lon="3.08988">
        <ele>657.10333251953</ele>
        <time>2020-12-14T11:40:01.899Z</time>
      </trkpt>
      <trkpt lat="45.71089" lon="3.09043">
        <ele>656.54724121094</ele>
        <time>2020-12-14T11:40:09.552Z</time>
      </trkpt>
      <trkpt lat="45.71098" lon="3.09088">
        <ele>657.27563476562</ele>
        <time>2020-12-14T11:40:17.211Z</time>
      </trkpt>
      <trkpt lat="45.7122" lon="3.09268">
        <ele>660.70251464844</ele>
        <time>2020-12-14T11:40:24.906Z</time>
      </trkpt>
      <trkpt lat="45.71293" lon="3.09367">
        <ele>665.21966552734</ele>
        <time>2020-12-14T11:40:32.621Z</time>
      </trkpt>
      <trkpt lat="45.71367" lon="3.09512">
        <ele>672.22869873047</ele>
        <time>2020-12-14T11:40:40.361Z</time>
      </trkpt>
      <trkpt lat="45.71374" lon="3.09575">
        <ele>675.02423095703</ele>
        <time>2020-12-14T11:40:48.110Z</time>
      </trkpt>
      <trkpt lat="45.71356" lon="3.09672">
        <ele>687.32360839844</ele>
        <time>2020-12-14T11:40:55.873Z</time>
      </trkpt>
      <trkpt lat="45.71399" lon="3.09789">
        <ele>684.03045654297</ele>
        <time>2020-12-14T11:41:03.654Z</time>
      </trkpt>
      <trkpt lat="45.71415" lon="3.09867">
        <ele>688.24041748047</ele>
        <time>2020-12-14T11:41:11.447Z</time>
      </trkpt>
      <trkpt lat="45.71421" lon="3.09896">
        <ele>689.46954345703</ele>
        <time>2020-12-14T11:41:19.244Z</time>
      </trkpt>
      <trkpt lat="45.71602" lon="3.10064">
        <ele>683.42047119141</ele>
        <time>2020-12-14T11:41:27.084Z</time>
      </trkpt>
      <trkpt lat="45.71616" lon="3.10108">
        <ele>686.10748291016</ele>
        <time>2020-12-14T11:41:34.931Z</time>
      </trkpt>
      <trkpt lat="45.71598" lon="3.10213">
        <ele>697.15350341797</ele>
        <time>2020-12-14T11:41:42.793Z</time>
      </trkpt>
      <trkpt lat="45.71716" lon="3.10293">
        <ele>693.34606933594</ele>
        <time>2020-12-14T11:41:50.681Z</time>
      </trkpt>
      <trkpt lat="45.71727" lon="3.10294">
        <ele>691.26947021484</ele>
        <time>2020-12-14T11:41:58.571Z</time>
      </trkpt>
      <trkpt lat="45.71737" lon="3.10303">
        <ele>690.12963867188</ele>
        <time>2020-12-14T11:42:06.464Z</time>
      </trkpt>
      <trkpt lat="45.71773" lon="3.10345">
        <ele>687.21441650391</ele>
        <time>2020-12-14T11:42:14.366Z</time>
      </trkpt>
      <trkpt lat="45.71773" lon="3.10332">
        <ele>685.41442871094</ele>
        <time>2020-12-14T11:42:22.270Z</time>
      </trkpt>
      <trkpt lat="45.71776" lon="3.10319">
        <ele>682.24694824219</ele>
        <time>2020-12-14T11:42:30.176Z</time>
      </trkpt>
      <trkpt lat="45.71784" lon="3.10308">
        <ele>681.26568603516</ele>
        <time>2020-12-14T11:42:38.084Z</time>
      </trkpt>
      <trkpt lat="45.71816" lon="3.10307">
        <ele>676.32434082031</ele>
        <time>2020-12-14T11:42:45.998Z</time>
      </trkpt>
      <trkpt lat="45.71825" lon="3.10313">
        <ele>673.58880615234</ele>
        <time>2020-12-14T11:42:53.914Z</time>
      </trkpt>
      <trkpt lat="45.71832" lon="3.10324">
        <ele>671.30920410156</ele>
        <time>2020-12-14T11:43:01.832Z</time>
      </trkpt>
      <trkpt lat="45.71835" lon="3.10338">
        <ele>670.109375</ele>
        <time>2020-12-14T11:43:09.752Z</time>
      </trkpt>
      <trkpt lat="45.71833" lon="3.1037">
        <ele>665.12908935547</ele>
        <time>2020-12-14T11:43:17.677Z</time>
      </trkpt>
      <trkpt lat="45.71828" lon="3.10413">
        <ele>659.97143554688</ele>
        <time>2020-12-14T11:43:25.608Z</time>
      </trkpt>
      <trkpt lat="45.71813" lon="3.10452">
        <ele>660.89044189453</ele>
        <time>2020-12-14T11:43:33.545Z</time>
      </trkpt>
      <trkpt lat="45.71811" lon="3.1048">
        <ele>658.77880859375</ele>
        <time>2020-12-14T11:43:41.486Z</time>
      </trkpt>
      <trkpt lat="45.71827" lon="3.10465">
        <ele>655.611328125</ele>
        <time>2020-12-14T11:43:49.431Z</time>
      </trkpt>
      <trkpt lat="45.71867" lon="3.10424">
        <ele>645.15393066406</ele>
        <time>2020-12-14T11:43:57.386Z</time>
      </trkpt>
      <trkpt lat="45.71987" lon="3.10322">
        <ele>632.45922851562</ele>
        <time>2020-12-14T11:44:05.369Z</time>
      </trkpt>
      <trkpt lat="45.72017" lon="3.10317">
        <ele>624.42053222656</ele>
        <time>2020-12-14T11:44:13.358Z</time>
      </trkpt>
      <trkpt lat="45.72038" lon="3.10344">
        <ele>610.82281494141</ele>
        <time>2020-12-14T11:44:21.353Z</time>
      </trkpt>
      <trkpt lat="45.72081" lon="3.10344">
        <ele>599.43133544922</ele>
        <time>2020-12-14T11:44:29.356Z</time>
      </trkpt>
      <trkpt lat="45.7219" lon="3.10302">
        <ele>579.84490966797</ele>
        <time>2020-12-14T11:44:37.382Z</time>
      </trkpt>
      <trkpt lat="45.72221" lon="3.10307">
        <ele>569.76733398438</ele>
        <time>2020-12-14T11:44:45.414Z</time>
      </trkpt>
      <trkpt lat="45.72253" lon="3.10302">
        <ele>564.12829589844</ele>
        <time>2020-12-14T11:44:53.452Z</time>
      </trkpt>
      <trkpt lat="45.72285" lon="3.10256">
        <ele>554.87200927734</ele>
        <time>2020-12-14T11:45:01.499Z</time>
      </trkpt>
      <trkpt lat="45.72307" lon="3.10232">
        <ele>548.32934570312</ele>
        <time>2020-12-14T11:45:09.552Z</time>
      </trkpt>
      <trkpt lat="45.72313" lon="3.10194">
        <ele>545.73779296875</ele>
        <time>2020-12-14T11:45:17.610Z</time>
      </trkpt>
      <trkpt lat="45.72341" lon="3.10203">
        <ele>539.95684814453</ele>
        <time>2020-12-14T11:45:25.674Z</time>
      </trkpt>
      <trkpt lat="45.72387" lon="3.10195">
        <ele>528.34283447266</ele>
        <time>2020-12-14T11:45:33.747Z</time>
      </trkpt>
      <trkpt lat="45.72411" lon="3.10227">
        <ele>527.18084716797</ele>
        <time>2020-12-14T11:45:41.827Z</time>
      </trkpt>
      <trkpt lat="45.7251" lon="3.10188">
        <ele>510.7297668457</ele>
        <time>2020-12-14T11:45:49.928Z</time>
      </trkpt>
      <trkpt lat="45.7255" lon="3.10141">
        <ele>505.35818481445</ele>
        <time>2020-12-14T11:45:58.039Z</time>
      </trkpt>
      <trkpt lat="45.72613" lon="3.10127">
        <ele>498.99435424805</ele>
        <time>2020-12-14T11:46:06.163Z</time>
      </trkpt>
      <trkpt lat="45.72661" lon="3.10119">
        <ele>493.89834594727</ele>
        <time>2020-12-14T11:46:14.296Z</time>
      </trkpt>
      <trkpt lat="45.72706" lon="3.10084">
        <ele>488.84008789062</ele>
        <time>2020-12-14T11:46:22.440Z</time>
      </trkpt>
      <trkpt lat="45.72814" lon="3.10083">
        <ele>481.02264404297</ele>
        <time>2020-12-14T11:46:30.605Z</time>
      </trkpt>
      <trkpt lat="45.72836" lon="3.10084">
        <ele>479.18695068359</ele>
        <time>2020-12-14T11:46:38.775Z</time>
      </trkpt>
      <trkpt lat="45.72932" lon="3.10004">
        <ele>469.70211791992</ele>
        <time>2020-12-14T11:46:46.967Z</time>
      </trkpt>
      <trkpt lat="45.72953" lon="3.10002">
        <ele>468.16635131836</ele>
        <time>2020-12-14T11:46:55.163Z</time>
      </trkpt>
      <trkpt lat="45.72973" lon="3.10009">
        <ele>466.82809448242</ele>
        <time>2020-12-14T11:47:03.363Z</time>
      </trkpt>
      <trkpt lat="45.7299" lon="3.1004">
        <ele>467.14553833008</ele>
        <time>2020-12-14T11:47:11.569Z</time>
      </trkpt>
      <trkpt lat="45.73048" lon="3.10206">
        <ele>468.77368164062</ele>
        <time>2020-12-14T11:47:19.801Z</time>
      </trkpt>
      <trkpt lat="45.73052" lon="3.10226">
        <ele>469.20562744141</ele>
        <time>2020-12-14T11:47:28.036Z</time>
      </trkpt>
      <trkpt lat="45.73061" lon="3.10236">
        <ele>468.99606323242</ele>
        <time>2020-12-14T11:47:36.273Z</time>
      </trkpt>
    </trkseg>
  </trk>
</gpx>